<?xml version="1.0" encoding="UTF-8" standalone="no" ?>
<gpx xmlns="http://www.topografix.com/GPX/1/1" xmlns:xsi="http://www.w3.org/2001/XMLSchema-instance" xsi:schemaLocation="http://www.topografix.com/GPX/1/1 http://www.topografix.com/GPX/1/1/gpx.xsd" version="1.1" creator="VisuGPX - https://www.visugpx.com">
  <metadata>
    <name>Rando Portugal Parc Geres - Peneda</name>
    <desc><![CDATA[Rando Portugal Parc Geres - Peneda]]></desc>
  </metadata>
  <trk>
    <name><![CDATA[ACTIVE LOG110335]]></name>
    <trkseg>
      <trkpt lat="41.97388" lon="-8.2231">
        <ele>668.653</ele>
        <time>2012-08-03T09:03:33Z</time>
      </trkpt>
      <trkpt lat="41.97392" lon="-8.22321">
        <ele>669.7</ele>
        <time>2012-08-03T09:04:24Z</time>
      </trkpt>
      <trkpt lat="41.97398" lon="-8.22322">
        <ele>667.734</ele>
        <time>2012-08-03T09:04:39Z</time>
      </trkpt>
      <trkpt lat="41.97404" lon="-8.22318">
        <ele>666.49</ele>
        <time>2012-08-03T09:04:52Z</time>
      </trkpt>
      <trkpt lat="41.97406" lon="-8.2232">
        <ele>666.291</ele>
        <time>2012-08-03T09:04:59Z</time>
      </trkpt>
      <trkpt lat="41.97409" lon="-8.22316">
        <ele>666.687</ele>
        <time>2012-08-03T09:05:09Z</time>
      </trkpt>
      <trkpt lat="41.9741" lon="-8.22318">
        <ele>668.198</ele>
        <time>2012-08-03T09:05:23Z</time>
      </trkpt>
      <trkpt lat="41.97416" lon="-8.22316">
        <ele>668.18</ele>
        <time>2012-08-03T09:05:48Z</time>
      </trkpt>
      <trkpt lat="41.97427" lon="-8.22316">
        <ele>668.335</ele>
        <time>2012-08-03T09:06:29Z</time>
      </trkpt>
      <trkpt lat="41.97449" lon="-8.22306">
        <ele>672.416</ele>
        <time>2012-08-03T09:06:46Z</time>
      </trkpt>
      <trkpt lat="41.97456" lon="-8.22304">
        <ele>672.485</ele>
        <time>2012-08-03T09:06:52Z</time>
      </trkpt>
      <trkpt lat="41.97464" lon="-8.22307">
        <ele>671.023</ele>
        <time>2012-08-03T09:07:02Z</time>
      </trkpt>
      <trkpt lat="41.97469" lon="-8.22304">
        <ele>671.15</ele>
        <time>2012-08-03T09:07:19Z</time>
      </trkpt>
      <trkpt lat="41.97469" lon="-8.22303">
        <ele>671.222</ele>
        <time>2012-08-03T09:07:20Z</time>
      </trkpt>
      <trkpt lat="41.97458" lon="-8.223">
        <ele>670.13</ele>
        <time>2012-08-03T09:07:32Z</time>
      </trkpt>
      <trkpt lat="41.97457" lon="-8.22297">
        <ele>672.327</ele>
        <time>2012-08-03T09:07:34Z</time>
      </trkpt>
      <trkpt lat="41.9746" lon="-8.22293">
        <ele>672.86</ele>
        <time>2012-08-03T09:07:37Z</time>
      </trkpt>
      <trkpt lat="41.97473" lon="-8.22282">
        <ele>673.609</ele>
        <time>2012-08-03T09:07:50Z</time>
      </trkpt>
      <trkpt lat="41.97491" lon="-8.22282">
        <ele>674.855</ele>
        <time>2012-08-03T09:08:04Z</time>
      </trkpt>
      <trkpt lat="41.97498" lon="-8.2228">
        <ele>677.142</ele>
        <time>2012-08-03T09:08:28Z</time>
      </trkpt>
      <trkpt lat="41.97512" lon="-8.22277">
        <ele>682.953</ele>
        <time>2012-08-03T09:08:45Z</time>
      </trkpt>
      <trkpt lat="41.97516" lon="-8.22274">
        <ele>683.803</ele>
        <time>2012-08-03T09:08:48Z</time>
      </trkpt>
      <trkpt lat="41.97529" lon="-8.22264">
        <ele>689.68</ele>
        <time>2012-08-03T09:09:07Z</time>
      </trkpt>
      <trkpt lat="41.97536" lon="-8.22258">
        <ele>695.047</ele>
        <time>2012-08-03T09:09:28Z</time>
      </trkpt>
      <trkpt lat="41.97533" lon="-8.22266">
        <ele>699.031</ele>
        <time>2012-08-03T09:09:40Z</time>
      </trkpt>
      <trkpt lat="41.97526" lon="-8.22277">
        <ele>703.194</ele>
        <time>2012-08-03T09:09:56Z</time>
      </trkpt>
      <trkpt lat="41.97526" lon="-8.22288">
        <ele>708.485</ele>
        <time>2012-08-03T09:10:18Z</time>
      </trkpt>
      <trkpt lat="41.97527" lon="-8.22287">
        <ele>708.846</ele>
        <time>2012-08-03T09:10:20Z</time>
      </trkpt>
      <trkpt lat="41.97537" lon="-8.22284">
        <ele>711.893</ele>
        <time>2012-08-03T09:10:37Z</time>
      </trkpt>
      <trkpt lat="41.97541" lon="-8.22291">
        <ele>714.403</ele>
        <time>2012-08-03T09:10:52Z</time>
      </trkpt>
      <trkpt lat="41.97532" lon="-8.22297">
        <ele>717.758</ele>
        <time>2012-08-03T09:11:07Z</time>
      </trkpt>
      <trkpt lat="41.97527" lon="-8.22308">
        <ele>721.301</ele>
        <time>2012-08-03T09:11:20Z</time>
      </trkpt>
      <trkpt lat="41.97519" lon="-8.22325">
        <ele>724.69</ele>
        <time>2012-08-03T09:11:37Z</time>
      </trkpt>
      <trkpt lat="41.97527" lon="-8.22335">
        <ele>726.828</ele>
        <time>2012-08-03T09:11:57Z</time>
      </trkpt>
      <trkpt lat="41.97538" lon="-8.22328">
        <ele>727.51</ele>
        <time>2012-08-03T09:12:15Z</time>
      </trkpt>
      <trkpt lat="41.97542" lon="-8.22326">
        <ele>727.306</ele>
        <time>2012-08-03T09:12:19Z</time>
      </trkpt>
      <trkpt lat="41.97548" lon="-8.22317">
        <ele>727.926</ele>
        <time>2012-08-03T09:12:33Z</time>
      </trkpt>
      <trkpt lat="41.97554" lon="-8.22308">
        <ele>729.395</ele>
        <time>2012-08-03T09:12:44Z</time>
      </trkpt>
      <trkpt lat="41.97556" lon="-8.22315">
        <ele>732.921</ele>
        <time>2012-08-03T09:12:59Z</time>
      </trkpt>
      <trkpt lat="41.97555" lon="-8.22323">
        <ele>733.993</ele>
        <time>2012-08-03T09:13:06Z</time>
      </trkpt>
      <trkpt lat="41.97554" lon="-8.22326">
        <ele>734.67</ele>
        <time>2012-08-03T09:13:09Z</time>
      </trkpt>
      <trkpt lat="41.97557" lon="-8.22332">
        <ele>735.094</ele>
        <time>2012-08-03T09:13:24Z</time>
      </trkpt>
      <trkpt lat="41.97564" lon="-8.22325">
        <ele>739.022</ele>
        <time>2012-08-03T09:13:38Z</time>
      </trkpt>
      <trkpt lat="41.97565" lon="-8.22337">
        <ele>740.239</ele>
        <time>2012-08-03T09:13:52Z</time>
      </trkpt>
      <trkpt lat="41.97559" lon="-8.22345">
        <ele>742.946</ele>
        <time>2012-08-03T09:14:07Z</time>
      </trkpt>
      <trkpt lat="41.97557" lon="-8.22361">
        <ele>746.888</ele>
        <time>2012-08-03T09:14:24Z</time>
      </trkpt>
      <trkpt lat="41.97558" lon="-8.22363">
        <ele>748.782</ele>
        <time>2012-08-03T09:14:37Z</time>
      </trkpt>
      <trkpt lat="41.97561" lon="-8.22358">
        <ele>749.278</ele>
        <time>2012-08-03T09:14:49Z</time>
      </trkpt>
      <trkpt lat="41.9757" lon="-8.22352">
        <ele>752.44</ele>
        <time>2012-08-03T09:15:04Z</time>
      </trkpt>
      <trkpt lat="41.97583" lon="-8.22348">
        <ele>757.595</ele>
        <time>2012-08-03T09:15:20Z</time>
      </trkpt>
      <trkpt lat="41.97595" lon="-8.22343">
        <ele>761.379</ele>
        <time>2012-08-03T09:15:37Z</time>
      </trkpt>
      <trkpt lat="41.97603" lon="-8.22343">
        <ele>764.019</ele>
        <time>2012-08-03T09:15:51Z</time>
      </trkpt>
      <trkpt lat="41.97598" lon="-8.22356">
        <ele>765.513</ele>
        <time>2012-08-03T09:16:06Z</time>
      </trkpt>
      <trkpt lat="41.9759" lon="-8.22371">
        <ele>773.106</ele>
        <time>2012-08-03T09:16:24Z</time>
      </trkpt>
      <trkpt lat="41.97586" lon="-8.22372">
        <ele>776.497</ele>
        <time>2012-08-03T09:16:41Z</time>
      </trkpt>
      <trkpt lat="41.9758" lon="-8.22384">
        <ele>777.859</ele>
        <time>2012-08-03T09:17:05Z</time>
      </trkpt>
      <trkpt lat="41.97574" lon="-8.22401">
        <ele>776.142</ele>
        <time>2012-08-03T09:17:24Z</time>
      </trkpt>
      <trkpt lat="41.97572" lon="-8.22419">
        <ele>776.845</ele>
        <time>2012-08-03T09:17:44Z</time>
      </trkpt>
      <trkpt lat="41.97575" lon="-8.22418">
        <ele>777.871</ele>
        <time>2012-08-03T09:17:51Z</time>
      </trkpt>
      <trkpt lat="41.97587" lon="-8.22406">
        <ele>783.83</ele>
        <time>2012-08-03T09:18:12Z</time>
      </trkpt>
      <trkpt lat="41.97595" lon="-8.22398">
        <ele>787.091</ele>
        <time>2012-08-03T09:18:29Z</time>
      </trkpt>
      <trkpt lat="41.97604" lon="-8.22395">
        <ele>790.967</ele>
        <time>2012-08-03T09:18:49Z</time>
      </trkpt>
      <trkpt lat="41.97601" lon="-8.22405">
        <ele>793.967</ele>
        <time>2012-08-03T09:19:13Z</time>
      </trkpt>
      <trkpt lat="41.97605" lon="-8.22411">
        <ele>795.629</ele>
        <time>2012-08-03T09:19:30Z</time>
      </trkpt>
      <trkpt lat="41.97611" lon="-8.22407">
        <ele>796.958</ele>
        <time>2012-08-03T09:19:47Z</time>
      </trkpt>
      <trkpt lat="41.97619" lon="-8.22404">
        <ele>796.393</ele>
        <time>2012-08-03T09:19:59Z</time>
      </trkpt>
      <trkpt lat="41.97627" lon="-8.22407">
        <ele>798.83</ele>
        <time>2012-08-03T09:20:17Z</time>
      </trkpt>
      <trkpt lat="41.97621" lon="-8.22415">
        <ele>804.118</ele>
        <time>2012-08-03T09:20:31Z</time>
      </trkpt>
      <trkpt lat="41.97615" lon="-8.22419">
        <ele>807.441</ele>
        <time>2012-08-03T09:20:46Z</time>
      </trkpt>
      <trkpt lat="41.9761" lon="-8.22433">
        <ele>810.115</ele>
        <time>2012-08-03T09:21:08Z</time>
      </trkpt>
      <trkpt lat="41.97605" lon="-8.22448">
        <ele>809.743</ele>
        <time>2012-08-03T09:21:24Z</time>
      </trkpt>
      <trkpt lat="41.97605" lon="-8.2247">
        <ele>813.805</ele>
        <time>2012-08-03T09:21:48Z</time>
      </trkpt>
      <trkpt lat="41.97604" lon="-8.2247">
        <ele>816.947</ele>
        <time>2012-08-03T09:22:02Z</time>
      </trkpt>
      <trkpt lat="41.97598" lon="-8.22482">
        <ele>821.004</ele>
        <time>2012-08-03T09:22:23Z</time>
      </trkpt>
      <trkpt lat="41.97601" lon="-8.22493">
        <ele>822.225</ele>
        <time>2012-08-03T09:22:39Z</time>
      </trkpt>
      <trkpt lat="41.97602" lon="-8.22498">
        <ele>824.103</ele>
        <time>2012-08-03T09:22:55Z</time>
      </trkpt>
      <trkpt lat="41.97602" lon="-8.22498">
        <ele>823.839</ele>
        <time>2012-08-03T09:22:56Z</time>
      </trkpt>
      <trkpt lat="41.97601" lon="-8.22492">
        <ele>825.04</ele>
        <time>2012-08-03T09:23:16Z</time>
      </trkpt>
      <trkpt lat="41.97598" lon="-8.22502">
        <ele>827.975</ele>
        <time>2012-08-03T09:23:54Z</time>
      </trkpt>
      <trkpt lat="41.97595" lon="-8.22512">
        <ele>829.536</ele>
        <time>2012-08-03T09:24:05Z</time>
      </trkpt>
      <trkpt lat="41.97594" lon="-8.22522">
        <ele>831.955</ele>
        <time>2012-08-03T09:24:17Z</time>
      </trkpt>
      <trkpt lat="41.9759" lon="-8.2253">
        <ele>834.555</ele>
        <time>2012-08-03T09:24:38Z</time>
      </trkpt>
      <trkpt lat="41.97593" lon="-8.22543">
        <ele>834.497</ele>
        <time>2012-08-03T09:25:00Z</time>
      </trkpt>
      <trkpt lat="41.97599" lon="-8.22537">
        <ele>835.019</ele>
        <time>2012-08-03T09:25:09Z</time>
      </trkpt>
      <trkpt lat="41.97597" lon="-8.22542">
        <ele>835.952</ele>
        <time>2012-08-03T09:25:20Z</time>
      </trkpt>
      <trkpt lat="41.97594" lon="-8.22548">
        <ele>837.751</ele>
        <time>2012-08-03T09:25:28Z</time>
      </trkpt>
      <trkpt lat="41.97584" lon="-8.22561">
        <ele>841.559</ele>
        <time>2012-08-03T09:25:44Z</time>
      </trkpt>
      <trkpt lat="41.97582" lon="-8.22569">
        <ele>845.896</ele>
        <time>2012-08-03T09:25:59Z</time>
      </trkpt>
      <trkpt lat="41.97582" lon="-8.22568">
        <ele>846.248</ele>
        <time>2012-08-03T09:26:01Z</time>
      </trkpt>
      <trkpt lat="41.97584" lon="-8.22573">
        <ele>848.322</ele>
        <time>2012-08-03T09:26:12Z</time>
      </trkpt>
      <trkpt lat="41.97591" lon="-8.22575">
        <ele>850.193</ele>
        <time>2012-08-03T09:26:25Z</time>
      </trkpt>
      <trkpt lat="41.97592" lon="-8.22567">
        <ele>854.561</ele>
        <time>2012-08-03T09:26:39Z</time>
      </trkpt>
      <trkpt lat="41.97593" lon="-8.22568">
        <ele>855.933</ele>
        <time>2012-08-03T09:26:45Z</time>
      </trkpt>
      <trkpt lat="41.97592" lon="-8.22581">
        <ele>857.843</ele>
        <time>2012-08-03T09:27:03Z</time>
      </trkpt>
      <trkpt lat="41.97587" lon="-8.22592">
        <ele>859.375</ele>
        <time>2012-08-03T09:27:16Z</time>
      </trkpt>
      <trkpt lat="41.97587" lon="-8.22602">
        <ele>861.418</ele>
        <time>2012-08-03T09:27:29Z</time>
      </trkpt>
      <trkpt lat="41.97583" lon="-8.22609">
        <ele>864.663</ele>
        <time>2012-08-03T09:27:42Z</time>
      </trkpt>
      <trkpt lat="41.9758" lon="-8.22623">
        <ele>869.825</ele>
        <time>2012-08-03T09:27:58Z</time>
      </trkpt>
      <trkpt lat="41.97576" lon="-8.22633">
        <ele>873.478</ele>
        <time>2012-08-03T09:28:13Z</time>
      </trkpt>
      <trkpt lat="41.97576" lon="-8.22648">
        <ele>876.487</ele>
        <time>2012-08-03T09:28:30Z</time>
      </trkpt>
      <trkpt lat="41.97575" lon="-8.22659">
        <ele>880.939</ele>
        <time>2012-08-03T09:28:43Z</time>
      </trkpt>
      <trkpt lat="41.97579" lon="-8.22664">
        <ele>882.54</ele>
        <time>2012-08-03T09:28:54Z</time>
      </trkpt>
      <trkpt lat="41.9758" lon="-8.22676">
        <ele>886.082</ele>
        <time>2012-08-03T09:29:08Z</time>
      </trkpt>
      <trkpt lat="41.97585" lon="-8.22672">
        <ele>888.24</ele>
        <time>2012-08-03T09:29:22Z</time>
      </trkpt>
      <trkpt lat="41.97589" lon="-8.22664">
        <ele>892.096</ele>
        <time>2012-08-03T09:29:37Z</time>
      </trkpt>
      <trkpt lat="41.97596" lon="-8.22659">
        <ele>896.929</ele>
        <time>2012-08-03T09:29:54Z</time>
      </trkpt>
      <trkpt lat="41.97597" lon="-8.22667">
        <ele>900.156</ele>
        <time>2012-08-03T09:30:11Z</time>
      </trkpt>
      <trkpt lat="41.976" lon="-8.22679">
        <ele>903.315</ele>
        <time>2012-08-03T09:30:30Z</time>
      </trkpt>
      <trkpt lat="41.97598" lon="-8.22682">
        <ele>905.416</ele>
        <time>2012-08-03T09:31:23Z</time>
      </trkpt>
      <trkpt lat="41.97596" lon="-8.22687">
        <ele>908.718</ele>
        <time>2012-08-03T09:31:39Z</time>
      </trkpt>
      <trkpt lat="41.97595" lon="-8.22687">
        <ele>907.887</ele>
        <time>2012-08-03T09:32:13Z</time>
      </trkpt>
      <trkpt lat="41.97596" lon="-8.22687">
        <ele>907.612</ele>
        <time>2012-08-03T09:32:29Z</time>
      </trkpt>
      <trkpt lat="41.97604" lon="-8.22682">
        <ele>906.417</ele>
        <time>2012-08-03T09:32:44Z</time>
      </trkpt>
      <trkpt lat="41.97606" lon="-8.22686">
        <ele>909.382</ele>
        <time>2012-08-03T09:33:00Z</time>
      </trkpt>
      <trkpt lat="41.97606" lon="-8.22695">
        <ele>910.442</ele>
        <time>2012-08-03T09:33:16Z</time>
      </trkpt>
      <trkpt lat="41.97606" lon="-8.22697">
        <ele>910.831</ele>
        <time>2012-08-03T09:33:18Z</time>
      </trkpt>
      <trkpt lat="41.97612" lon="-8.22694">
        <ele>912.806</ele>
        <time>2012-08-03T09:33:29Z</time>
      </trkpt>
      <trkpt lat="41.9761" lon="-8.22698">
        <ele>915.009</ele>
        <time>2012-08-03T09:33:48Z</time>
      </trkpt>
      <trkpt lat="41.97612" lon="-8.227">
        <ele>916.559</ele>
        <time>2012-08-03T09:34:03Z</time>
      </trkpt>
      <trkpt lat="41.97612" lon="-8.22705">
        <ele>918.141</ele>
        <time>2012-08-03T09:34:14Z</time>
      </trkpt>
      <trkpt lat="41.9761" lon="-8.22707">
        <ele>918.009</ele>
        <time>2012-08-03T09:34:52Z</time>
      </trkpt>
      <trkpt lat="41.97612" lon="-8.22714">
        <ele>920.146</ele>
        <time>2012-08-03T09:35:08Z</time>
      </trkpt>
      <trkpt lat="41.97616" lon="-8.22712">
        <ele>921.496</ele>
        <time>2012-08-03T09:35:24Z</time>
      </trkpt>
      <trkpt lat="41.97614" lon="-8.2272">
        <ele>925.098</ele>
        <time>2012-08-03T09:35:37Z</time>
      </trkpt>
      <trkpt lat="41.97612" lon="-8.22726">
        <ele>927.772</ele>
        <time>2012-08-03T09:36:04Z</time>
      </trkpt>
      <trkpt lat="41.97616" lon="-8.22733">
        <ele>928.141</ele>
        <time>2012-08-03T09:36:31Z</time>
      </trkpt>
      <trkpt lat="41.97616" lon="-8.22739">
        <ele>928.709</ele>
        <time>2012-08-03T09:36:52Z</time>
      </trkpt>
      <trkpt lat="41.97619" lon="-8.22747">
        <ele>928.966</ele>
        <time>2012-08-03T09:37:10Z</time>
      </trkpt>
      <trkpt lat="41.97623" lon="-8.22754">
        <ele>931.598</ele>
        <time>2012-08-03T09:37:32Z</time>
      </trkpt>
      <trkpt lat="41.97627" lon="-8.22762">
        <ele>933.141</ele>
        <time>2012-08-03T09:38:05Z</time>
      </trkpt>
      <trkpt lat="41.97635" lon="-8.22773">
        <ele>937.482</ele>
        <time>2012-08-03T09:38:22Z</time>
      </trkpt>
      <trkpt lat="41.97637" lon="-8.22779">
        <ele>939.055</ele>
        <time>2012-08-03T09:38:32Z</time>
      </trkpt>
      <trkpt lat="41.9764" lon="-8.22784">
        <ele>938.912</ele>
        <time>2012-08-03T09:38:37Z</time>
      </trkpt>
      <trkpt lat="41.97639" lon="-8.22789">
        <ele>940.96</ele>
        <time>2012-08-03T09:38:45Z</time>
      </trkpt>
      <trkpt lat="41.97639" lon="-8.2279">
        <ele>940.86</ele>
        <time>2012-08-03T09:38:54Z</time>
      </trkpt>
      <trkpt lat="41.97639" lon="-8.22806">
        <ele>941.361</ele>
        <time>2012-08-03T09:39:10Z</time>
      </trkpt>
      <trkpt lat="41.97642" lon="-8.22819">
        <ele>942.852</ele>
        <time>2012-08-03T09:39:24Z</time>
      </trkpt>
      <trkpt lat="41.97646" lon="-8.22826">
        <ele>944.564</ele>
        <time>2012-08-03T09:39:37Z</time>
      </trkpt>
      <trkpt lat="41.9764" lon="-8.22841">
        <ele>945.822</ele>
        <time>2012-08-03T09:39:54Z</time>
      </trkpt>
      <trkpt lat="41.97639" lon="-8.22842">
        <ele>945.599</ele>
        <time>2012-08-03T09:40:11Z</time>
      </trkpt>
      <trkpt lat="41.97631" lon="-8.22834">
        <ele>945.898</ele>
        <time>2012-08-03T09:40:22Z</time>
      </trkpt>
      <trkpt lat="41.97631" lon="-8.22827">
        <ele>945.281</ele>
        <time>2012-08-03T09:40:29Z</time>
      </trkpt>
      <trkpt lat="41.97632" lon="-8.22826">
        <ele>945.2</ele>
        <time>2012-08-03T09:40:44Z</time>
      </trkpt>
      <trkpt lat="41.97635" lon="-8.22827">
        <ele>943.911</ele>
        <time>2012-08-03T09:41:10Z</time>
      </trkpt>
      <trkpt lat="41.9763" lon="-8.22825">
        <ele>942.495</ele>
        <time>2012-08-03T09:41:28Z</time>
      </trkpt>
      <trkpt lat="41.97631" lon="-8.22826">
        <ele>941.92</ele>
        <time>2012-08-03T09:42:01Z</time>
      </trkpt>
      <trkpt lat="41.97632" lon="-8.22825">
        <ele>942.696</ele>
        <time>2012-08-03T09:43:21Z</time>
      </trkpt>
      <trkpt lat="41.97636" lon="-8.22836">
        <ele>943.655</ele>
        <time>2012-08-03T09:44:35Z</time>
      </trkpt>
      <trkpt lat="41.97633" lon="-8.22845">
        <ele>941.965</ele>
        <time>2012-08-03T09:44:49Z</time>
      </trkpt>
      <trkpt lat="41.97635" lon="-8.22863">
        <ele>943.539</ele>
        <time>2012-08-03T09:45:08Z</time>
      </trkpt>
      <trkpt lat="41.97641" lon="-8.22874">
        <ele>944.646</ele>
        <time>2012-08-03T09:45:27Z</time>
      </trkpt>
      <trkpt lat="41.97641" lon="-8.22879">
        <ele>946.001</ele>
        <time>2012-08-03T09:45:48Z</time>
      </trkpt>
      <trkpt lat="41.97651" lon="-8.22904">
        <ele>952.857</ele>
        <time>2012-08-03T09:46:54Z</time>
      </trkpt>
      <trkpt lat="41.97651" lon="-8.22903">
        <ele>952.487</ele>
        <time>2012-08-03T09:47:22Z</time>
      </trkpt>
      <trkpt lat="41.9766" lon="-8.22904">
        <ele>952.278</ele>
        <time>2012-08-03T09:47:35Z</time>
      </trkpt>
      <trkpt lat="41.9767" lon="-8.22902">
        <ele>951.726</ele>
        <time>2012-08-03T09:48:23Z</time>
      </trkpt>
      <trkpt lat="41.97676" lon="-8.22901">
        <ele>952.517</ele>
        <time>2012-08-03T09:48:35Z</time>
      </trkpt>
      <trkpt lat="41.97687" lon="-8.22898">
        <ele>956.475</ele>
        <time>2012-08-03T09:48:47Z</time>
      </trkpt>
      <trkpt lat="41.97696" lon="-8.22901">
        <ele>960.534</ele>
        <time>2012-08-03T09:49:04Z</time>
      </trkpt>
      <trkpt lat="41.97712" lon="-8.22902">
        <ele>965.631</ele>
        <time>2012-08-03T09:49:24Z</time>
      </trkpt>
      <trkpt lat="41.97727" lon="-8.22906">
        <ele>965.362</ele>
        <time>2012-08-03T09:49:39Z</time>
      </trkpt>
      <trkpt lat="41.9774" lon="-8.22917">
        <ele>965.46</ele>
        <time>2012-08-03T09:49:56Z</time>
      </trkpt>
      <trkpt lat="41.97745" lon="-8.22925">
        <ele>963.953</ele>
        <time>2012-08-03T09:50:14Z</time>
      </trkpt>
      <trkpt lat="41.97751" lon="-8.22939">
        <ele>962.31</ele>
        <time>2012-08-03T09:50:34Z</time>
      </trkpt>
      <trkpt lat="41.97759" lon="-8.2294">
        <ele>963.253</ele>
        <time>2012-08-03T09:50:47Z</time>
      </trkpt>
      <trkpt lat="41.97767" lon="-8.2295">
        <ele>963.63</ele>
        <time>2012-08-03T09:51:00Z</time>
      </trkpt>
      <trkpt lat="41.97773" lon="-8.22968">
        <ele>965.582</ele>
        <time>2012-08-03T09:51:17Z</time>
      </trkpt>
      <trkpt lat="41.97769" lon="-8.22977">
        <ele>965.834</ele>
        <time>2012-08-03T09:51:30Z</time>
      </trkpt>
      <trkpt lat="41.97769" lon="-8.22992">
        <ele>966.813</ele>
        <time>2012-08-03T09:51:43Z</time>
      </trkpt>
      <trkpt lat="41.97765" lon="-8.22995">
        <ele>965.705</ele>
        <time>2012-08-03T09:51:57Z</time>
      </trkpt>
      <trkpt lat="41.97764" lon="-8.22997">
        <ele>966.813</ele>
        <time>2012-08-03T09:52:28Z</time>
      </trkpt>
      <trkpt lat="41.97762" lon="-8.23006">
        <ele>969.789</ele>
        <time>2012-08-03T09:52:41Z</time>
      </trkpt>
      <trkpt lat="41.97764" lon="-8.23022">
        <ele>975.917</ele>
        <time>2012-08-03T09:52:57Z</time>
      </trkpt>
      <trkpt lat="41.97759" lon="-8.23041">
        <ele>980.514</ele>
        <time>2012-08-03T09:53:15Z</time>
      </trkpt>
      <trkpt lat="41.97755" lon="-8.23059">
        <ele>984.274</ele>
        <time>2012-08-03T09:53:30Z</time>
      </trkpt>
      <trkpt lat="41.97756" lon="-8.23072">
        <ele>986.722</ele>
        <time>2012-08-03T09:53:43Z</time>
      </trkpt>
      <trkpt lat="41.97763" lon="-8.23077">
        <ele>983.362</ele>
        <time>2012-08-03T09:53:56Z</time>
      </trkpt>
      <trkpt lat="41.9777" lon="-8.23076">
        <ele>982.593</ele>
        <time>2012-08-03T09:54:19Z</time>
      </trkpt>
      <trkpt lat="41.97772" lon="-8.23076">
        <ele>982.822</ele>
        <time>2012-08-03T09:54:48Z</time>
      </trkpt>
      <trkpt lat="41.97778" lon="-8.23083">
        <ele>982.277</ele>
        <time>2012-08-03T09:55:17Z</time>
      </trkpt>
      <trkpt lat="41.97788" lon="-8.23098">
        <ele>981.333</ele>
        <time>2012-08-03T09:55:33Z</time>
      </trkpt>
      <trkpt lat="41.97786" lon="-8.231">
        <ele>980.676</ele>
        <time>2012-08-03T09:55:44Z</time>
      </trkpt>
      <trkpt lat="41.97789" lon="-8.23112">
        <ele>980.11</ele>
        <time>2012-08-03T09:55:52Z</time>
      </trkpt>
      <trkpt lat="41.97791" lon="-8.23126">
        <ele>980.752</ele>
        <time>2012-08-03T09:56:06Z</time>
      </trkpt>
      <trkpt lat="41.97791" lon="-8.2313">
        <ele>981.244</ele>
        <time>2012-08-03T09:56:08Z</time>
      </trkpt>
      <trkpt lat="41.97791" lon="-8.23132">
        <ele>983.387</ele>
        <time>2012-08-03T09:56:10Z</time>
      </trkpt>
      <trkpt lat="41.97793" lon="-8.23141">
        <ele>984.953</ele>
        <time>2012-08-03T09:56:25Z</time>
      </trkpt>
      <trkpt lat="41.97797" lon="-8.23145">
        <ele>986.266</ele>
        <time>2012-08-03T09:56:58Z</time>
      </trkpt>
      <trkpt lat="41.97798" lon="-8.23146">
        <ele>986.265</ele>
        <time>2012-08-03T09:56:59Z</time>
      </trkpt>
      <trkpt lat="41.97802" lon="-8.23149">
        <ele>986.51</ele>
        <time>2012-08-03T09:57:03Z</time>
      </trkpt>
      <trkpt lat="41.97804" lon="-8.23159">
        <ele>987.655</ele>
        <time>2012-08-03T09:57:18Z</time>
      </trkpt>
      <trkpt lat="41.97804" lon="-8.23167">
        <ele>987.489</ele>
        <time>2012-08-03T09:57:29Z</time>
      </trkpt>
      <trkpt lat="41.97805" lon="-8.23177">
        <ele>986.595</ele>
        <time>2012-08-03T09:57:39Z</time>
      </trkpt>
      <trkpt lat="41.97806" lon="-8.23183">
        <ele>985.885</ele>
        <time>2012-08-03T09:57:43Z</time>
      </trkpt>
      <trkpt lat="41.97812" lon="-8.23196">
        <ele>985.317</ele>
        <time>2012-08-03T09:57:56Z</time>
      </trkpt>
      <trkpt lat="41.97819" lon="-8.23208">
        <ele>988.805</ele>
        <time>2012-08-03T09:58:14Z</time>
      </trkpt>
      <trkpt lat="41.97827" lon="-8.23201">
        <ele>990.851</ele>
        <time>2012-08-03T09:58:34Z</time>
      </trkpt>
      <trkpt lat="41.97823" lon="-8.23207">
        <ele>989.991</ele>
        <time>2012-08-03T09:58:50Z</time>
      </trkpt>
      <trkpt lat="41.97836" lon="-8.232">
        <ele>990.466</ele>
        <time>2012-08-03T10:00:16Z</time>
      </trkpt>
      <trkpt lat="41.97849" lon="-8.23191">
        <ele>989.749</ele>
        <time>2012-08-03T10:00:28Z</time>
      </trkpt>
      <trkpt lat="41.9786" lon="-8.23189">
        <ele>985.75</ele>
        <time>2012-08-03T10:00:41Z</time>
      </trkpt>
      <trkpt lat="41.97864" lon="-8.23191">
        <ele>983.774</ele>
        <time>2012-08-03T10:02:21Z</time>
      </trkpt>
      <trkpt lat="41.97864" lon="-8.23191">
        <ele>983.888</ele>
        <time>2012-08-03T10:03:01Z</time>
      </trkpt>
      <trkpt lat="41.97862" lon="-8.23192">
        <ele>985.555</ele>
        <time>2012-08-03T10:04:48Z</time>
      </trkpt>
      <trkpt lat="41.97876" lon="-8.23201">
        <ele>985.374</ele>
        <time>2012-08-03T10:05:06Z</time>
      </trkpt>
      <trkpt lat="41.97876" lon="-8.23203">
        <ele>985.048</ele>
        <time>2012-08-03T10:05:09Z</time>
      </trkpt>
      <trkpt lat="41.97873" lon="-8.23204">
        <ele>984.035</ele>
        <time>2012-08-03T10:05:16Z</time>
      </trkpt>
      <trkpt lat="41.97875" lon="-8.23207">
        <ele>983.488</ele>
        <time>2012-08-03T10:05:19Z</time>
      </trkpt>
      <trkpt lat="41.97879" lon="-8.23212">
        <ele>983.195</ele>
        <time>2012-08-03T10:05:24Z</time>
      </trkpt>
      <trkpt lat="41.97905" lon="-8.23239">
        <ele>985.703</ele>
        <time>2012-08-03T10:05:52Z</time>
      </trkpt>
      <trkpt lat="41.97923" lon="-8.23262">
        <ele>985.846</ele>
        <time>2012-08-03T10:06:15Z</time>
      </trkpt>
      <trkpt lat="41.97939" lon="-8.2328">
        <ele>986.675</ele>
        <time>2012-08-03T10:06:36Z</time>
      </trkpt>
      <trkpt lat="41.97946" lon="-8.2329">
        <ele>985.897</ele>
        <time>2012-08-03T10:07:03Z</time>
      </trkpt>
      <trkpt lat="41.97948" lon="-8.23293">
        <ele>985.893</ele>
        <time>2012-08-03T10:07:06Z</time>
      </trkpt>
      <trkpt lat="41.97963" lon="-8.2332">
        <ele>988.264</ele>
        <time>2012-08-03T10:07:28Z</time>
      </trkpt>
      <trkpt lat="41.97977" lon="-8.23329">
        <ele>990.635</ele>
        <time>2012-08-03T10:07:44Z</time>
      </trkpt>
      <trkpt lat="41.97988" lon="-8.23335">
        <ele>990.703</ele>
        <time>2012-08-03T10:07:55Z</time>
      </trkpt>
      <trkpt lat="41.98003" lon="-8.23352">
        <ele>992.829</ele>
        <time>2012-08-03T10:08:13Z</time>
      </trkpt>
      <trkpt lat="41.98014" lon="-8.23353">
        <ele>995.488</ele>
        <time>2012-08-03T10:08:29Z</time>
      </trkpt>
      <trkpt lat="41.98026" lon="-8.23357">
        <ele>996.205</ele>
        <time>2012-08-03T10:08:44Z</time>
      </trkpt>
      <trkpt lat="41.98029" lon="-8.23358">
        <ele>995.959</ele>
        <time>2012-08-03T10:08:50Z</time>
      </trkpt>
      <trkpt lat="41.9803" lon="-8.2336">
        <ele>995.401</ele>
        <time>2012-08-03T10:08:52Z</time>
      </trkpt>
      <trkpt lat="41.98049" lon="-8.23354">
        <ele>997.446</ele>
        <time>2012-08-03T10:09:10Z</time>
      </trkpt>
      <trkpt lat="41.9805" lon="-8.23354">
        <ele>997.184</ele>
        <time>2012-08-03T10:09:12Z</time>
      </trkpt>
      <trkpt lat="41.98059" lon="-8.23353">
        <ele>997.805</ele>
        <time>2012-08-03T10:09:27Z</time>
      </trkpt>
      <trkpt lat="41.98059" lon="-8.23354">
        <ele>997.548</ele>
        <time>2012-08-03T10:09:28Z</time>
      </trkpt>
      <trkpt lat="41.98071" lon="-8.23368">
        <ele>998.24</ele>
        <time>2012-08-03T10:09:45Z</time>
      </trkpt>
      <trkpt lat="41.98079" lon="-8.23378">
        <ele>998.628</ele>
        <time>2012-08-03T10:09:56Z</time>
      </trkpt>
      <trkpt lat="41.98082" lon="-8.23381">
        <ele>999.098</ele>
        <time>2012-08-03T10:10:00Z</time>
      </trkpt>
      <trkpt lat="41.98092" lon="-8.23382">
        <ele>998.195</ele>
        <time>2012-08-03T10:10:13Z</time>
      </trkpt>
      <trkpt lat="41.98101" lon="-8.23389">
        <ele>996.308</ele>
        <time>2012-08-03T10:10:27Z</time>
      </trkpt>
      <trkpt lat="41.98103" lon="-8.23393">
        <ele>995.164</ele>
        <time>2012-08-03T10:10:31Z</time>
      </trkpt>
      <trkpt lat="41.98106" lon="-8.23402">
        <ele>993.003</ele>
        <time>2012-08-03T10:10:38Z</time>
      </trkpt>
      <trkpt lat="41.98107" lon="-8.23404">
        <ele>992.901</ele>
        <time>2012-08-03T10:10:40Z</time>
      </trkpt>
      <trkpt lat="41.98109" lon="-8.23407">
        <ele>993.385</ele>
        <time>2012-08-03T10:10:43Z</time>
      </trkpt>
      <trkpt lat="41.98114" lon="-8.23429">
        <ele>994.248</ele>
        <time>2012-08-03T10:10:58Z</time>
      </trkpt>
      <trkpt lat="41.98113" lon="-8.23437">
        <ele>993.289</ele>
        <time>2012-08-03T10:11:05Z</time>
      </trkpt>
      <trkpt lat="41.98115" lon="-8.2345">
        <ele>997.732</ele>
        <time>2012-08-03T10:11:20Z</time>
      </trkpt>
      <trkpt lat="41.98117" lon="-8.23459">
        <ele>998.401</ele>
        <time>2012-08-03T10:11:29Z</time>
      </trkpt>
      <trkpt lat="41.98118" lon="-8.23466">
        <ele>999.285</ele>
        <time>2012-08-03T10:11:36Z</time>
      </trkpt>
      <trkpt lat="41.98125" lon="-8.23482">
        <ele>1001.503</ele>
        <time>2012-08-03T10:11:51Z</time>
      </trkpt>
      <trkpt lat="41.98131" lon="-8.23487">
        <ele>1002.178</ele>
        <time>2012-08-03T10:11:59Z</time>
      </trkpt>
      <trkpt lat="41.98133" lon="-8.2349">
        <ele>1002.89</ele>
        <time>2012-08-03T10:12:02Z</time>
      </trkpt>
      <trkpt lat="41.98132" lon="-8.23506">
        <ele>1003.849</ele>
        <time>2012-08-03T10:12:12Z</time>
      </trkpt>
      <trkpt lat="41.98136" lon="-8.23519">
        <ele>1004.566</ele>
        <time>2012-08-03T10:12:23Z</time>
      </trkpt>
      <trkpt lat="41.98142" lon="-8.23521">
        <ele>1005.009</ele>
        <time>2012-08-03T10:12:29Z</time>
      </trkpt>
      <trkpt lat="41.98144" lon="-8.23523">
        <ele>1004.546</ele>
        <time>2012-08-03T10:12:31Z</time>
      </trkpt>
      <trkpt lat="41.98156" lon="-8.23531">
        <ele>1005.033</ele>
        <time>2012-08-03T10:12:45Z</time>
      </trkpt>
      <trkpt lat="41.98165" lon="-8.23537">
        <ele>1005.687</ele>
        <time>2012-08-03T10:12:52Z</time>
      </trkpt>
      <trkpt lat="41.98169" lon="-8.23544">
        <ele>1005.485</ele>
        <time>2012-08-03T10:12:57Z</time>
      </trkpt>
      <trkpt lat="41.98171" lon="-8.23545">
        <ele>1004.963</ele>
        <time>2012-08-03T10:13:12Z</time>
      </trkpt>
      <trkpt lat="41.98171" lon="-8.23546">
        <ele>1005.081</ele>
        <time>2012-08-03T10:13:27Z</time>
      </trkpt>
      <trkpt lat="41.9817" lon="-8.23554">
        <ele>1004.655</ele>
        <time>2012-08-03T10:13:45Z</time>
      </trkpt>
      <trkpt lat="41.98175" lon="-8.23557">
        <ele>1004.739</ele>
        <time>2012-08-03T10:13:49Z</time>
      </trkpt>
      <trkpt lat="41.98182" lon="-8.23564">
        <ele>1004.722</ele>
        <time>2012-08-03T10:13:56Z</time>
      </trkpt>
      <trkpt lat="41.98189" lon="-8.23569">
        <ele>1005.105</ele>
        <time>2012-08-03T10:14:02Z</time>
      </trkpt>
      <trkpt lat="41.98191" lon="-8.23575">
        <ele>1005.203</ele>
        <time>2012-08-03T10:14:06Z</time>
      </trkpt>
      <trkpt lat="41.98198" lon="-8.23582">
        <ele>1004.656</ele>
        <time>2012-08-03T10:14:14Z</time>
      </trkpt>
      <trkpt lat="41.982" lon="-8.23582">
        <ele>1005.007</ele>
        <time>2012-08-03T10:14:17Z</time>
      </trkpt>
      <trkpt lat="41.98202" lon="-8.23586">
        <ele>1005.74</ele>
        <time>2012-08-03T10:14:20Z</time>
      </trkpt>
      <trkpt lat="41.98216" lon="-8.23597">
        <ele>1007.241</ele>
        <time>2012-08-03T10:14:34Z</time>
      </trkpt>
      <trkpt lat="41.98217" lon="-8.23599">
        <ele>1007.549</ele>
        <time>2012-08-03T10:14:36Z</time>
      </trkpt>
      <trkpt lat="41.98221" lon="-8.23609">
        <ele>1009.092</ele>
        <time>2012-08-03T10:14:45Z</time>
      </trkpt>
      <trkpt lat="41.98224" lon="-8.23611">
        <ele>1009.894</ele>
        <time>2012-08-03T10:14:48Z</time>
      </trkpt>
      <trkpt lat="41.98239" lon="-8.23631">
        <ele>1012.812</ele>
        <time>2012-08-03T10:15:09Z</time>
      </trkpt>
      <trkpt lat="41.98245" lon="-8.23641">
        <ele>1013.804</ele>
        <time>2012-08-03T10:15:18Z</time>
      </trkpt>
      <trkpt lat="41.98248" lon="-8.2365">
        <ele>1014.232</ele>
        <time>2012-08-03T10:15:25Z</time>
      </trkpt>
      <trkpt lat="41.98254" lon="-8.23664">
        <ele>1016.555</ele>
        <time>2012-08-03T10:15:41Z</time>
      </trkpt>
      <trkpt lat="41.9826" lon="-8.23682">
        <ele>1018.13</ele>
        <time>2012-08-03T10:15:57Z</time>
      </trkpt>
      <trkpt lat="41.98265" lon="-8.23706">
        <ele>1018.059</ele>
        <time>2012-08-03T10:16:13Z</time>
      </trkpt>
      <trkpt lat="41.98266" lon="-8.23709">
        <ele>1018.109</ele>
        <time>2012-08-03T10:16:15Z</time>
      </trkpt>
      <trkpt lat="41.9827" lon="-8.23723">
        <ele>1018.675</ele>
        <time>2012-08-03T10:16:26Z</time>
      </trkpt>
      <trkpt lat="41.98276" lon="-8.2374">
        <ele>1018.534</ele>
        <time>2012-08-03T10:16:42Z</time>
      </trkpt>
      <trkpt lat="41.98277" lon="-8.23742">
        <ele>1018.416</ele>
        <time>2012-08-03T10:16:44Z</time>
      </trkpt>
      <trkpt lat="41.98279" lon="-8.23751">
        <ele>1016.826</ele>
        <time>2012-08-03T10:16:51Z</time>
      </trkpt>
      <trkpt lat="41.98286" lon="-8.23766">
        <ele>1016.856</ele>
        <time>2012-08-03T10:17:03Z</time>
      </trkpt>
      <trkpt lat="41.98287" lon="-8.2377">
        <ele>1016.774</ele>
        <time>2012-08-03T10:17:06Z</time>
      </trkpt>
      <trkpt lat="41.98295" lon="-8.23787">
        <ele>1017.604</ele>
        <time>2012-08-03T10:17:20Z</time>
      </trkpt>
      <trkpt lat="41.98301" lon="-8.23793">
        <ele>1018.195</ele>
        <time>2012-08-03T10:17:26Z</time>
      </trkpt>
      <trkpt lat="41.98305" lon="-8.23796">
        <ele>1018.893</ele>
        <time>2012-08-03T10:17:33Z</time>
      </trkpt>
      <trkpt lat="41.98313" lon="-8.23795">
        <ele>1015.176</ele>
        <time>2012-08-03T10:17:45Z</time>
      </trkpt>
      <trkpt lat="41.98319" lon="-8.23799">
        <ele>1016.271</ele>
        <time>2012-08-03T10:18:01Z</time>
      </trkpt>
      <trkpt lat="41.98329" lon="-8.23809">
        <ele>1015.908</ele>
        <time>2012-08-03T10:18:16Z</time>
      </trkpt>
      <trkpt lat="41.98334" lon="-8.23824">
        <ele>1014.277</ele>
        <time>2012-08-03T10:18:32Z</time>
      </trkpt>
      <trkpt lat="41.98334" lon="-8.23825">
        <ele>1014.343</ele>
        <time>2012-08-03T10:18:34Z</time>
      </trkpt>
      <trkpt lat="41.98342" lon="-8.23842">
        <ele>1016.067</ele>
        <time>2012-08-03T10:18:50Z</time>
      </trkpt>
      <trkpt lat="41.98344" lon="-8.23848">
        <ele>1016.938</ele>
        <time>2012-08-03T10:18:55Z</time>
      </trkpt>
      <trkpt lat="41.98349" lon="-8.23853">
        <ele>1017.855</ele>
        <time>2012-08-03T10:19:00Z</time>
      </trkpt>
      <trkpt lat="41.9835" lon="-8.23867">
        <ele>1017.888</ele>
        <time>2012-08-03T10:19:09Z</time>
      </trkpt>
      <trkpt lat="41.98359" lon="-8.23885">
        <ele>1018.356</ele>
        <time>2012-08-03T10:19:26Z</time>
      </trkpt>
      <trkpt lat="41.98364" lon="-8.23895">
        <ele>1018.784</ele>
        <time>2012-08-03T10:19:33Z</time>
      </trkpt>
      <trkpt lat="41.98373" lon="-8.23916">
        <ele>1020.205</ele>
        <time>2012-08-03T10:19:49Z</time>
      </trkpt>
      <trkpt lat="41.98379" lon="-8.2393">
        <ele>1021.997</ele>
        <time>2012-08-03T10:20:01Z</time>
      </trkpt>
      <trkpt lat="41.98395" lon="-8.23948">
        <ele>1027.178</ele>
        <time>2012-08-03T10:20:23Z</time>
      </trkpt>
      <trkpt lat="41.98397" lon="-8.2395">
        <ele>1028.484</ele>
        <time>2012-08-03T10:20:26Z</time>
      </trkpt>
      <trkpt lat="41.98399" lon="-8.23954">
        <ele>1029.153</ele>
        <time>2012-08-03T10:20:29Z</time>
      </trkpt>
      <trkpt lat="41.98408" lon="-8.2396">
        <ele>1031.551</ele>
        <time>2012-08-03T10:20:36Z</time>
      </trkpt>
      <trkpt lat="41.98411" lon="-8.23967">
        <ele>1032.788</ele>
        <time>2012-08-03T10:20:41Z</time>
      </trkpt>
      <trkpt lat="41.98417" lon="-8.23976">
        <ele>1034.67</ele>
        <time>2012-08-03T10:20:49Z</time>
      </trkpt>
      <trkpt lat="41.9843" lon="-8.23998">
        <ele>1033.978</ele>
        <time>2012-08-03T10:21:08Z</time>
      </trkpt>
      <trkpt lat="41.98435" lon="-8.24009">
        <ele>1034.713</ele>
        <time>2012-08-03T10:21:16Z</time>
      </trkpt>
      <trkpt lat="41.98447" lon="-8.24012">
        <ele>1035.563</ele>
        <time>2012-08-03T10:21:27Z</time>
      </trkpt>
      <trkpt lat="41.98454" lon="-8.24027">
        <ele>1036.981</ele>
        <time>2012-08-03T10:21:38Z</time>
      </trkpt>
      <trkpt lat="41.98456" lon="-8.24034">
        <ele>1037.993</ele>
        <time>2012-08-03T10:21:43Z</time>
      </trkpt>
      <trkpt lat="41.98465" lon="-8.24052">
        <ele>1038.129</ele>
        <time>2012-08-03T10:21:58Z</time>
      </trkpt>
      <trkpt lat="41.98468" lon="-8.24054">
        <ele>1039.337</ele>
        <time>2012-08-03T10:22:02Z</time>
      </trkpt>
      <trkpt lat="41.98468" lon="-8.24068">
        <ele>1041.299</ele>
        <time>2012-08-03T10:22:13Z</time>
      </trkpt>
      <trkpt lat="41.98475" lon="-8.24075">
        <ele>1044.887</ele>
        <time>2012-08-03T10:22:31Z</time>
      </trkpt>
      <trkpt lat="41.98486" lon="-8.24085">
        <ele>1046.767</ele>
        <time>2012-08-03T10:22:55Z</time>
      </trkpt>
      <trkpt lat="41.98489" lon="-8.24099">
        <ele>1047.378</ele>
        <time>2012-08-03T10:23:06Z</time>
      </trkpt>
      <trkpt lat="41.985" lon="-8.24121">
        <ele>1048.462</ele>
        <time>2012-08-03T10:23:26Z</time>
      </trkpt>
      <trkpt lat="41.98514" lon="-8.24127">
        <ele>1050.098</ele>
        <time>2012-08-03T10:23:46Z</time>
      </trkpt>
      <trkpt lat="41.98525" lon="-8.24141">
        <ele>1051.644</ele>
        <time>2012-08-03T10:24:07Z</time>
      </trkpt>
      <trkpt lat="41.98532" lon="-8.24162">
        <ele>1053.269</ele>
        <time>2012-08-03T10:24:25Z</time>
      </trkpt>
      <trkpt lat="41.98543" lon="-8.24171">
        <ele>1053.213</ele>
        <time>2012-08-03T10:24:45Z</time>
      </trkpt>
      <trkpt lat="41.98551" lon="-8.24179">
        <ele>1054.174</ele>
        <time>2012-08-03T10:24:56Z</time>
      </trkpt>
      <trkpt lat="41.9856" lon="-8.24189">
        <ele>1055.116</ele>
        <time>2012-08-03T10:25:13Z</time>
      </trkpt>
      <trkpt lat="41.98568" lon="-8.24197">
        <ele>1055.458</ele>
        <time>2012-08-03T10:25:30Z</time>
      </trkpt>
      <trkpt lat="41.98569" lon="-8.242">
        <ele>1055.338</ele>
        <time>2012-08-03T10:25:33Z</time>
      </trkpt>
      <trkpt lat="41.98573" lon="-8.24207">
        <ele>1055.229</ele>
        <time>2012-08-03T10:25:41Z</time>
      </trkpt>
      <trkpt lat="41.98577" lon="-8.24216">
        <ele>1055.477</ele>
        <time>2012-08-03T10:26:02Z</time>
      </trkpt>
      <trkpt lat="41.98582" lon="-8.24239">
        <ele>1055.666</ele>
        <time>2012-08-03T10:26:24Z</time>
      </trkpt>
      <trkpt lat="41.98586" lon="-8.24256">
        <ele>1055.007</ele>
        <time>2012-08-03T10:26:35Z</time>
      </trkpt>
      <trkpt lat="41.986" lon="-8.24256">
        <ele>1072.165</ele>
        <time>2012-08-03T10:26:52Z</time>
      </trkpt>
      <trkpt lat="41.98604" lon="-8.24261">
        <ele>1076.096</ele>
        <time>2012-08-03T10:27:00Z</time>
      </trkpt>
      <trkpt lat="41.98603" lon="-8.24278">
        <ele>1079.074</ele>
        <time>2012-08-03T10:27:18Z</time>
      </trkpt>
      <trkpt lat="41.98601" lon="-8.24294">
        <ele>1081.535</ele>
        <time>2012-08-03T10:27:36Z</time>
      </trkpt>
      <trkpt lat="41.98614" lon="-8.24296">
        <ele>1081.504</ele>
        <time>2012-08-03T10:27:49Z</time>
      </trkpt>
      <trkpt lat="41.98628" lon="-8.24302">
        <ele>1080.18</ele>
        <time>2012-08-03T10:28:07Z</time>
      </trkpt>
      <trkpt lat="41.98633" lon="-8.24309">
        <ele>1078.601</ele>
        <time>2012-08-03T10:28:14Z</time>
      </trkpt>
      <trkpt lat="41.9864" lon="-8.24322">
        <ele>1079.913</ele>
        <time>2012-08-03T10:28:31Z</time>
      </trkpt>
      <trkpt lat="41.9865" lon="-8.24329">
        <ele>1081.925</ele>
        <time>2012-08-03T10:28:48Z</time>
      </trkpt>
      <trkpt lat="41.98652" lon="-8.24329">
        <ele>1082.276</ele>
        <time>2012-08-03T10:28:50Z</time>
      </trkpt>
      <trkpt lat="41.98657" lon="-8.2433">
        <ele>1085.952</ele>
        <time>2012-08-03T10:29:06Z</time>
      </trkpt>
      <trkpt lat="41.98657" lon="-8.24328">
        <ele>1086.872</ele>
        <time>2012-08-03T10:29:57Z</time>
      </trkpt>
      <trkpt lat="41.9866" lon="-8.24328">
        <ele>1088.363</ele>
        <time>2012-08-03T10:30:50Z</time>
      </trkpt>
      <trkpt lat="41.98661" lon="-8.24332">
        <ele>1091.372</ele>
        <time>2012-08-03T10:31:24Z</time>
      </trkpt>
      <trkpt lat="41.98661" lon="-8.24332">
        <ele>1091.58</ele>
        <time>2012-08-03T10:32:06Z</time>
      </trkpt>
      <trkpt lat="41.98665" lon="-8.24337">
        <ele>1093.138</ele>
        <time>2012-08-03T10:32:17Z</time>
      </trkpt>
      <trkpt lat="41.98663" lon="-8.24332">
        <ele>1094.659</ele>
        <time>2012-08-03T10:32:35Z</time>
      </trkpt>
      <trkpt lat="41.98664" lon="-8.24332">
        <ele>1095.081</ele>
        <time>2012-08-03T10:33:51Z</time>
      </trkpt>
      <trkpt lat="41.98666" lon="-8.24332">
        <ele>1095.221</ele>
        <time>2012-08-03T10:34:37Z</time>
      </trkpt>
      <trkpt lat="41.98666" lon="-8.24332">
        <ele>1095.199</ele>
        <time>2012-08-03T10:34:38Z</time>
      </trkpt>
      <trkpt lat="41.9867" lon="-8.24335">
        <ele>1094.755</ele>
        <time>2012-08-03T10:34:50Z</time>
      </trkpt>
      <trkpt lat="41.98666" lon="-8.24332">
        <ele>1094.04</ele>
        <time>2012-08-03T10:35:06Z</time>
      </trkpt>
      <trkpt lat="41.98666" lon="-8.24334">
        <ele>1093.364</ele>
        <time>2012-08-03T10:38:35Z</time>
      </trkpt>
      <trkpt lat="41.98666" lon="-8.24334">
        <ele>1093.166</ele>
        <time>2012-08-03T10:38:38Z</time>
      </trkpt>
      <trkpt lat="41.98668" lon="-8.24328">
        <ele>1093.226</ele>
        <time>2012-08-03T10:38:53Z</time>
      </trkpt>
      <trkpt lat="41.98678" lon="-8.24324">
        <ele>1093.2</ele>
        <time>2012-08-03T10:39:06Z</time>
      </trkpt>
      <trkpt lat="41.98682" lon="-8.24317">
        <ele>1093.784</ele>
        <time>2012-08-03T10:39:14Z</time>
      </trkpt>
      <trkpt lat="41.98697" lon="-8.24305">
        <ele>1093.303</ele>
        <time>2012-08-03T10:39:29Z</time>
      </trkpt>
      <trkpt lat="41.98698" lon="-8.24304">
        <ele>1093.188</ele>
        <time>2012-08-03T10:39:30Z</time>
      </trkpt>
      <trkpt lat="41.98703" lon="-8.24289">
        <ele>1095.463</ele>
        <time>2012-08-03T10:39:45Z</time>
      </trkpt>
      <trkpt lat="41.98709" lon="-8.24281">
        <ele>1098.539</ele>
        <time>2012-08-03T10:39:58Z</time>
      </trkpt>
      <trkpt lat="41.98721" lon="-8.24282">
        <ele>1100.943</ele>
        <time>2012-08-03T10:40:13Z</time>
      </trkpt>
      <trkpt lat="41.98722" lon="-8.24282">
        <ele>1101.088</ele>
        <time>2012-08-03T10:40:14Z</time>
      </trkpt>
      <trkpt lat="41.9874" lon="-8.24289">
        <ele>1104.115</ele>
        <time>2012-08-03T10:40:36Z</time>
      </trkpt>
      <trkpt lat="41.98759" lon="-8.24293">
        <ele>1103.224</ele>
        <time>2012-08-03T10:40:54Z</time>
      </trkpt>
      <trkpt lat="41.98768" lon="-8.243">
        <ele>1103.054</ele>
        <time>2012-08-03T10:41:12Z</time>
      </trkpt>
      <trkpt lat="41.98771" lon="-8.24299">
        <ele>1102.632</ele>
        <time>2012-08-03T10:41:15Z</time>
      </trkpt>
      <trkpt lat="41.98777" lon="-8.24294">
        <ele>1102.953</ele>
        <time>2012-08-03T10:41:21Z</time>
      </trkpt>
      <trkpt lat="41.9878" lon="-8.24293">
        <ele>1103.495</ele>
        <time>2012-08-03T10:41:25Z</time>
      </trkpt>
      <trkpt lat="41.98791" lon="-8.24289">
        <ele>1102.369</ele>
        <time>2012-08-03T10:41:39Z</time>
      </trkpt>
      <trkpt lat="41.98799" lon="-8.24284">
        <ele>1098.648</ele>
        <time>2012-08-03T10:41:47Z</time>
      </trkpt>
      <trkpt lat="41.98801" lon="-8.24286">
        <ele>1097.531</ele>
        <time>2012-08-03T10:41:49Z</time>
      </trkpt>
      <trkpt lat="41.9881" lon="-8.2428">
        <ele>1095.128</ele>
        <time>2012-08-03T10:41:55Z</time>
      </trkpt>
      <trkpt lat="41.98816" lon="-8.24274">
        <ele>1093.55</ele>
        <time>2012-08-03T10:42:00Z</time>
      </trkpt>
      <trkpt lat="41.98828" lon="-8.24275">
        <ele>1090.84</ele>
        <time>2012-08-03T10:42:13Z</time>
      </trkpt>
      <trkpt lat="41.98831" lon="-8.24278">
        <ele>1090.44</ele>
        <time>2012-08-03T10:42:18Z</time>
      </trkpt>
      <trkpt lat="41.9884" lon="-8.24281">
        <ele>1083.838</ele>
        <time>2012-08-03T10:42:26Z</time>
      </trkpt>
      <trkpt lat="41.98846" lon="-8.24284">
        <ele>1081.61</ele>
        <time>2012-08-03T10:42:30Z</time>
      </trkpt>
      <trkpt lat="41.9885" lon="-8.24283">
        <ele>1078.916</ele>
        <time>2012-08-03T10:42:35Z</time>
      </trkpt>
      <trkpt lat="41.98857" lon="-8.24279">
        <ele>1075.715</ele>
        <time>2012-08-03T10:42:40Z</time>
      </trkpt>
      <trkpt lat="41.98868" lon="-8.24279">
        <ele>1072.448</ele>
        <time>2012-08-03T10:42:52Z</time>
      </trkpt>
      <trkpt lat="41.98869" lon="-8.24276">
        <ele>1072.625</ele>
        <time>2012-08-03T10:42:54Z</time>
      </trkpt>
      <trkpt lat="41.98871" lon="-8.2428">
        <ele>1076.87</ele>
        <time>2012-08-03T10:42:59Z</time>
      </trkpt>
      <trkpt lat="41.98876" lon="-8.24281">
        <ele>1081.549</ele>
        <time>2012-08-03T10:43:12Z</time>
      </trkpt>
      <trkpt lat="41.98878" lon="-8.2428">
        <ele>1082.983</ele>
        <time>2012-08-03T10:43:14Z</time>
      </trkpt>
      <trkpt lat="41.9888" lon="-8.24288">
        <ele>1085.705</ele>
        <time>2012-08-03T10:43:28Z</time>
      </trkpt>
      <trkpt lat="41.98882" lon="-8.2429">
        <ele>1085.071</ele>
        <time>2012-08-03T10:43:30Z</time>
      </trkpt>
      <trkpt lat="41.98884" lon="-8.24295">
        <ele>1084.736</ele>
        <time>2012-08-03T10:43:34Z</time>
      </trkpt>
      <trkpt lat="41.98891" lon="-8.24301">
        <ele>1086.648</ele>
        <time>2012-08-03T10:43:43Z</time>
      </trkpt>
      <trkpt lat="41.98896" lon="-8.24306">
        <ele>1085.405</ele>
        <time>2012-08-03T10:44:02Z</time>
      </trkpt>
      <trkpt lat="41.98896" lon="-8.24306">
        <ele>1086.095</ele>
        <time>2012-08-03T10:44:08Z</time>
      </trkpt>
      <trkpt lat="41.98901" lon="-8.2431">
        <ele>1083.342</ele>
        <time>2012-08-03T10:44:16Z</time>
      </trkpt>
      <trkpt lat="41.98906" lon="-8.24311">
        <ele>1083.345</ele>
        <time>2012-08-03T10:44:35Z</time>
      </trkpt>
      <trkpt lat="41.98912" lon="-8.24314">
        <ele>1082.724</ele>
        <time>2012-08-03T10:44:40Z</time>
      </trkpt>
      <trkpt lat="41.98916" lon="-8.24313">
        <ele>1080.793</ele>
        <time>2012-08-03T10:44:43Z</time>
      </trkpt>
      <trkpt lat="41.98921" lon="-8.24319">
        <ele>1081.397</ele>
        <time>2012-08-03T10:44:49Z</time>
      </trkpt>
      <trkpt lat="41.98923" lon="-8.24325">
        <ele>1081.977</ele>
        <time>2012-08-03T10:44:54Z</time>
      </trkpt>
      <trkpt lat="41.98925" lon="-8.2434">
        <ele>1082.218</ele>
        <time>2012-08-03T10:45:03Z</time>
      </trkpt>
      <trkpt lat="41.98925" lon="-8.24351">
        <ele>1081.413</ele>
        <time>2012-08-03T10:45:16Z</time>
      </trkpt>
      <trkpt lat="41.98927" lon="-8.2436">
        <ele>1081.084</ele>
        <time>2012-08-03T10:45:26Z</time>
      </trkpt>
      <trkpt lat="41.98927" lon="-8.24361">
        <ele>1080.906</ele>
        <time>2012-08-03T10:45:27Z</time>
      </trkpt>
      <trkpt lat="41.98925" lon="-8.24369">
        <ele>1082.252</ele>
        <time>2012-08-03T10:45:31Z</time>
      </trkpt>
      <trkpt lat="41.98926" lon="-8.24372">
        <ele>1082.36</ele>
        <time>2012-08-03T10:45:33Z</time>
      </trkpt>
      <trkpt lat="41.98928" lon="-8.24375">
        <ele>1081.729</ele>
        <time>2012-08-03T10:45:38Z</time>
      </trkpt>
      <trkpt lat="41.98929" lon="-8.24377">
        <ele>1082.243</ele>
        <time>2012-08-03T10:45:40Z</time>
      </trkpt>
      <trkpt lat="41.98931" lon="-8.24381">
        <ele>1082.135</ele>
        <time>2012-08-03T10:45:53Z</time>
      </trkpt>
      <trkpt lat="41.98939" lon="-8.24393">
        <ele>1082.115</ele>
        <time>2012-08-03T10:46:06Z</time>
      </trkpt>
      <trkpt lat="41.98954" lon="-8.24397">
        <ele>1080.933</ele>
        <time>2012-08-03T10:46:18Z</time>
      </trkpt>
      <trkpt lat="41.98964" lon="-8.24402">
        <ele>1080.332</ele>
        <time>2012-08-03T10:46:29Z</time>
      </trkpt>
      <trkpt lat="41.98975" lon="-8.24405">
        <ele>1081.061</ele>
        <time>2012-08-03T10:46:40Z</time>
      </trkpt>
      <trkpt lat="41.98977" lon="-8.24405">
        <ele>1081.727</ele>
        <time>2012-08-03T10:46:42Z</time>
      </trkpt>
      <trkpt lat="41.9898" lon="-8.24405">
        <ele>1081.05</ele>
        <time>2012-08-03T10:46:50Z</time>
      </trkpt>
      <trkpt lat="41.98983" lon="-8.2441">
        <ele>1081.161</ele>
        <time>2012-08-03T10:46:54Z</time>
      </trkpt>
      <trkpt lat="41.98991" lon="-8.24415">
        <ele>1078.641</ele>
        <time>2012-08-03T10:47:02Z</time>
      </trkpt>
      <trkpt lat="41.99002" lon="-8.24412">
        <ele>1077.2</ele>
        <time>2012-08-03T10:47:11Z</time>
      </trkpt>
      <trkpt lat="41.99004" lon="-8.24412">
        <ele>1077.791</ele>
        <time>2012-08-03T10:47:17Z</time>
      </trkpt>
      <trkpt lat="41.99011" lon="-8.24409">
        <ele>1077.856</ele>
        <time>2012-08-03T10:47:24Z</time>
      </trkpt>
      <trkpt lat="41.9903" lon="-8.24409">
        <ele>1076.116</ele>
        <time>2012-08-03T10:47:40Z</time>
      </trkpt>
      <trkpt lat="41.99035" lon="-8.24412">
        <ele>1077.721</ele>
        <time>2012-08-03T10:47:48Z</time>
      </trkpt>
      <trkpt lat="41.99045" lon="-8.24414">
        <ele>1078.045</ele>
        <time>2012-08-03T10:48:01Z</time>
      </trkpt>
      <trkpt lat="41.9905" lon="-8.24419">
        <ele>1078.513</ele>
        <time>2012-08-03T10:48:10Z</time>
      </trkpt>
      <trkpt lat="41.99054" lon="-8.24418">
        <ele>1078.738</ele>
        <time>2012-08-03T10:48:15Z</time>
      </trkpt>
      <trkpt lat="41.99058" lon="-8.24419">
        <ele>1078.888</ele>
        <time>2012-08-03T10:48:19Z</time>
      </trkpt>
      <trkpt lat="41.99063" lon="-8.24416">
        <ele>1079.79</ele>
        <time>2012-08-03T10:48:24Z</time>
      </trkpt>
      <trkpt lat="41.99067" lon="-8.24418">
        <ele>1078.735</ele>
        <time>2012-08-03T10:48:29Z</time>
      </trkpt>
      <trkpt lat="41.99073" lon="-8.24419">
        <ele>1078.838</ele>
        <time>2012-08-03T10:48:40Z</time>
      </trkpt>
      <trkpt lat="41.99077" lon="-8.2442">
        <ele>1079.37</ele>
        <time>2012-08-03T10:48:49Z</time>
      </trkpt>
      <trkpt lat="41.99084" lon="-8.24421">
        <ele>1081.74</ele>
        <time>2012-08-03T10:48:57Z</time>
      </trkpt>
      <trkpt lat="41.99088" lon="-8.2442">
        <ele>1082.5</ele>
        <time>2012-08-03T10:49:01Z</time>
      </trkpt>
      <trkpt lat="41.99096" lon="-8.2442">
        <ele>1083.576</ele>
        <time>2012-08-03T10:49:09Z</time>
      </trkpt>
      <trkpt lat="41.991" lon="-8.24422">
        <ele>1084.872</ele>
        <time>2012-08-03T10:49:13Z</time>
      </trkpt>
      <trkpt lat="41.99109" lon="-8.2442">
        <ele>1085.2</ele>
        <time>2012-08-03T10:49:21Z</time>
      </trkpt>
      <trkpt lat="41.99115" lon="-8.24418">
        <ele>1084.658</ele>
        <time>2012-08-03T10:49:35Z</time>
      </trkpt>
      <trkpt lat="41.99123" lon="-8.24415">
        <ele>1080.667</ele>
        <time>2012-08-03T10:49:46Z</time>
      </trkpt>
      <trkpt lat="41.9913" lon="-8.24412">
        <ele>1079.123</ele>
        <time>2012-08-03T10:49:53Z</time>
      </trkpt>
      <trkpt lat="41.99137" lon="-8.24408">
        <ele>1077.982</ele>
        <time>2012-08-03T10:50:00Z</time>
      </trkpt>
      <trkpt lat="41.99139" lon="-8.24411">
        <ele>1079.482</ele>
        <time>2012-08-03T10:50:10Z</time>
      </trkpt>
      <trkpt lat="41.99145" lon="-8.24411">
        <ele>1080.765</ele>
        <time>2012-08-03T10:50:18Z</time>
      </trkpt>
      <trkpt lat="41.99148" lon="-8.24408">
        <ele>1081.598</ele>
        <time>2012-08-03T10:50:21Z</time>
      </trkpt>
      <trkpt lat="41.99157" lon="-8.24407">
        <ele>1081.995</ele>
        <time>2012-08-03T10:50:33Z</time>
      </trkpt>
      <trkpt lat="41.99172" lon="-8.24404">
        <ele>1081.721</ele>
        <time>2012-08-03T10:50:46Z</time>
      </trkpt>
      <trkpt lat="41.9918" lon="-8.24397">
        <ele>1080.972</ele>
        <time>2012-08-03T10:50:59Z</time>
      </trkpt>
      <trkpt lat="41.99183" lon="-8.24398">
        <ele>1081.394</ele>
        <time>2012-08-03T10:51:14Z</time>
      </trkpt>
      <trkpt lat="41.99187" lon="-8.24397">
        <ele>1081.055</ele>
        <time>2012-08-03T10:51:24Z</time>
      </trkpt>
      <trkpt lat="41.99189" lon="-8.24398">
        <ele>1080.279</ele>
        <time>2012-08-03T10:51:26Z</time>
      </trkpt>
      <trkpt lat="41.99206" lon="-8.24398">
        <ele>1079.532</ele>
        <time>2012-08-03T10:51:38Z</time>
      </trkpt>
      <trkpt lat="41.99208" lon="-8.24398">
        <ele>1080.006</ele>
        <time>2012-08-03T10:51:40Z</time>
      </trkpt>
      <trkpt lat="41.9921" lon="-8.24397">
        <ele>1080.142</ele>
        <time>2012-08-03T10:51:42Z</time>
      </trkpt>
      <trkpt lat="41.99212" lon="-8.24398">
        <ele>1080.187</ele>
        <time>2012-08-03T10:51:45Z</time>
      </trkpt>
      <trkpt lat="41.99218" lon="-8.24398">
        <ele>1080.892</ele>
        <time>2012-08-03T10:51:51Z</time>
      </trkpt>
      <trkpt lat="41.99225" lon="-8.24394">
        <ele>1081.94</ele>
        <time>2012-08-03T10:51:57Z</time>
      </trkpt>
      <trkpt lat="41.99227" lon="-8.24392">
        <ele>1081.209</ele>
        <time>2012-08-03T10:51:59Z</time>
      </trkpt>
      <trkpt lat="41.99228" lon="-8.24391">
        <ele>1081.113</ele>
        <time>2012-08-03T10:52:01Z</time>
      </trkpt>
      <trkpt lat="41.99232" lon="-8.24393">
        <ele>1081.021</ele>
        <time>2012-08-03T10:52:05Z</time>
      </trkpt>
      <trkpt lat="41.99236" lon="-8.24391">
        <ele>1080.069</ele>
        <time>2012-08-03T10:52:08Z</time>
      </trkpt>
      <trkpt lat="41.99246" lon="-8.24391">
        <ele>1083.605</ele>
        <time>2012-08-03T10:52:19Z</time>
      </trkpt>
      <trkpt lat="41.9926" lon="-8.24389">
        <ele>1086.092</ele>
        <time>2012-08-03T10:52:31Z</time>
      </trkpt>
      <trkpt lat="41.9927" lon="-8.24387">
        <ele>1086.042</ele>
        <time>2012-08-03T10:52:40Z</time>
      </trkpt>
      <trkpt lat="41.99273" lon="-8.24386">
        <ele>1087.149</ele>
        <time>2012-08-03T10:52:42Z</time>
      </trkpt>
      <trkpt lat="41.99278" lon="-8.24388">
        <ele>1085.909</ele>
        <time>2012-08-03T10:52:47Z</time>
      </trkpt>
      <trkpt lat="41.9928" lon="-8.24388">
        <ele>1085.538</ele>
        <time>2012-08-03T10:52:49Z</time>
      </trkpt>
      <trkpt lat="41.99282" lon="-8.24386">
        <ele>1084.759</ele>
        <time>2012-08-03T10:52:51Z</time>
      </trkpt>
      <trkpt lat="41.99292" lon="-8.24391">
        <ele>1082.285</ele>
        <time>2012-08-03T10:53:01Z</time>
      </trkpt>
      <trkpt lat="41.99299" lon="-8.24393">
        <ele>1081.816</ele>
        <time>2012-08-03T10:53:07Z</time>
      </trkpt>
      <trkpt lat="41.99301" lon="-8.24392">
        <ele>1081.394</ele>
        <time>2012-08-03T10:53:09Z</time>
      </trkpt>
      <trkpt lat="41.99307" lon="-8.24383">
        <ele>1079.719</ele>
        <time>2012-08-03T10:53:17Z</time>
      </trkpt>
      <trkpt lat="41.99311" lon="-8.2438">
        <ele>1078.549</ele>
        <time>2012-08-03T10:53:21Z</time>
      </trkpt>
      <trkpt lat="41.99322" lon="-8.24379">
        <ele>1079.854</ele>
        <time>2012-08-03T10:53:32Z</time>
      </trkpt>
      <trkpt lat="41.99331" lon="-8.2438">
        <ele>1076.585</ele>
        <time>2012-08-03T10:53:43Z</time>
      </trkpt>
      <trkpt lat="41.99334" lon="-8.24377">
        <ele>1075.455</ele>
        <time>2012-08-03T10:53:46Z</time>
      </trkpt>
      <trkpt lat="41.99336" lon="-8.24376">
        <ele>1073.889</ele>
        <time>2012-08-03T10:53:49Z</time>
      </trkpt>
      <trkpt lat="41.99341" lon="-8.24376">
        <ele>1072.969</ele>
        <time>2012-08-03T10:53:54Z</time>
      </trkpt>
      <trkpt lat="41.9935" lon="-8.24373">
        <ele>1073.146</ele>
        <time>2012-08-03T10:54:01Z</time>
      </trkpt>
      <trkpt lat="41.99352" lon="-8.24373">
        <ele>1072.971</ele>
        <time>2012-08-03T10:54:03Z</time>
      </trkpt>
      <trkpt lat="41.99358" lon="-8.24376">
        <ele>1072.664</ele>
        <time>2012-08-03T10:54:12Z</time>
      </trkpt>
      <trkpt lat="41.99362" lon="-8.24375">
        <ele>1072.142</ele>
        <time>2012-08-03T10:54:16Z</time>
      </trkpt>
      <trkpt lat="41.99367" lon="-8.24376">
        <ele>1070.583</ele>
        <time>2012-08-03T10:54:22Z</time>
      </trkpt>
      <trkpt lat="41.9937" lon="-8.24376">
        <ele>1069.186</ele>
        <time>2012-08-03T10:54:25Z</time>
      </trkpt>
      <trkpt lat="41.99372" lon="-8.24377">
        <ele>1069.023</ele>
        <time>2012-08-03T10:54:27Z</time>
      </trkpt>
      <trkpt lat="41.99379" lon="-8.24373">
        <ele>1068.575</ele>
        <time>2012-08-03T10:54:32Z</time>
      </trkpt>
      <trkpt lat="41.99379" lon="-8.24375">
        <ele>1067.958</ele>
        <time>2012-08-03T10:54:42Z</time>
      </trkpt>
      <trkpt lat="41.99387" lon="-8.24372">
        <ele>1065.589</ele>
        <time>2012-08-03T10:55:06Z</time>
      </trkpt>
      <trkpt lat="41.99389" lon="-8.24369">
        <ele>1065.153</ele>
        <time>2012-08-03T10:55:09Z</time>
      </trkpt>
      <trkpt lat="41.99395" lon="-8.24367">
        <ele>1064.209</ele>
        <time>2012-08-03T10:55:14Z</time>
      </trkpt>
      <trkpt lat="41.99409" lon="-8.24364">
        <ele>1057.962</ele>
        <time>2012-08-03T10:55:26Z</time>
      </trkpt>
      <trkpt lat="41.99412" lon="-8.24363">
        <ele>1057.15</ele>
        <time>2012-08-03T10:55:29Z</time>
      </trkpt>
      <trkpt lat="41.99423" lon="-8.24356">
        <ele>1053.36</ele>
        <time>2012-08-03T10:55:42Z</time>
      </trkpt>
      <trkpt lat="41.99432" lon="-8.24351">
        <ele>1051.567</ele>
        <time>2012-08-03T10:55:52Z</time>
      </trkpt>
      <trkpt lat="41.99439" lon="-8.24345">
        <ele>1051.518</ele>
        <time>2012-08-03T10:56:08Z</time>
      </trkpt>
      <trkpt lat="41.9944" lon="-8.24343">
        <ele>1050.306</ele>
        <time>2012-08-03T10:56:34Z</time>
      </trkpt>
      <trkpt lat="41.99442" lon="-8.2434">
        <ele>1050.261</ele>
        <time>2012-08-03T10:56:39Z</time>
      </trkpt>
      <trkpt lat="41.99443" lon="-8.24337">
        <ele>1049.917</ele>
        <time>2012-08-03T10:56:43Z</time>
      </trkpt>
      <trkpt lat="41.99446" lon="-8.24331">
        <ele>1048.698</ele>
        <time>2012-08-03T10:56:50Z</time>
      </trkpt>
      <trkpt lat="41.99449" lon="-8.24326">
        <ele>1048.312</ele>
        <time>2012-08-03T10:57:07Z</time>
      </trkpt>
      <trkpt lat="41.99455" lon="-8.24319">
        <ele>1048.161</ele>
        <time>2012-08-03T10:57:23Z</time>
      </trkpt>
      <trkpt lat="41.9946" lon="-8.24315">
        <ele>1046.502</ele>
        <time>2012-08-03T10:57:31Z</time>
      </trkpt>
      <trkpt lat="41.99466" lon="-8.2431">
        <ele>1045.588</ele>
        <time>2012-08-03T10:57:43Z</time>
      </trkpt>
      <trkpt lat="41.99471" lon="-8.24307">
        <ele>1046.755</ele>
        <time>2012-08-03T10:57:49Z</time>
      </trkpt>
      <trkpt lat="41.9948" lon="-8.24304">
        <ele>1045.174</ele>
        <time>2012-08-03T10:58:01Z</time>
      </trkpt>
      <trkpt lat="41.99484" lon="-8.24304">
        <ele>1046.244</ele>
        <time>2012-08-03T10:58:14Z</time>
      </trkpt>
      <trkpt lat="41.99491" lon="-8.243">
        <ele>1046.759</ele>
        <time>2012-08-03T10:58:31Z</time>
      </trkpt>
      <trkpt lat="41.99497" lon="-8.24298">
        <ele>1046.847</ele>
        <time>2012-08-03T10:58:38Z</time>
      </trkpt>
      <trkpt lat="41.99499" lon="-8.24299">
        <ele>1046.498</ele>
        <time>2012-08-03T10:58:40Z</time>
      </trkpt>
      <trkpt lat="41.99505" lon="-8.24298">
        <ele>1047.816</ele>
        <time>2012-08-03T10:58:44Z</time>
      </trkpt>
      <trkpt lat="41.99509" lon="-8.24296">
        <ele>1049.828</ele>
        <time>2012-08-03T10:58:51Z</time>
      </trkpt>
      <trkpt lat="41.99517" lon="-8.24293">
        <ele>1051.01</ele>
        <time>2012-08-03T10:58:59Z</time>
      </trkpt>
      <trkpt lat="41.99522" lon="-8.24291">
        <ele>1049.538</ele>
        <time>2012-08-03T10:59:15Z</time>
      </trkpt>
      <trkpt lat="41.99522" lon="-8.24291">
        <ele>1049.568</ele>
        <time>2012-08-03T10:59:18Z</time>
      </trkpt>
      <trkpt lat="41.99523" lon="-8.2429">
        <ele>1049.543</ele>
        <time>2012-08-03T10:59:20Z</time>
      </trkpt>
      <trkpt lat="41.99536" lon="-8.24289">
        <ele>1043.342</ele>
        <time>2012-08-03T10:59:35Z</time>
      </trkpt>
      <trkpt lat="41.99537" lon="-8.24286">
        <ele>1042.152</ele>
        <time>2012-08-03T10:59:38Z</time>
      </trkpt>
      <trkpt lat="41.99544" lon="-8.24285">
        <ele>1040.786</ele>
        <time>2012-08-03T10:59:44Z</time>
      </trkpt>
      <trkpt lat="41.99553" lon="-8.24284">
        <ele>1039.377</ele>
        <time>2012-08-03T10:59:51Z</time>
      </trkpt>
      <trkpt lat="41.99558" lon="-8.24283">
        <ele>1039.095</ele>
        <time>2012-08-03T10:59:57Z</time>
      </trkpt>
      <trkpt lat="41.99559" lon="-8.2428">
        <ele>1038.565</ele>
        <time>2012-08-03T10:59:59Z</time>
      </trkpt>
      <trkpt lat="41.99562" lon="-8.24278">
        <ele>1038.342</ele>
        <time>2012-08-03T11:00:02Z</time>
      </trkpt>
      <trkpt lat="41.99563" lon="-8.24276">
        <ele>1038.612</ele>
        <time>2012-08-03T11:00:04Z</time>
      </trkpt>
      <trkpt lat="41.99567" lon="-8.24276">
        <ele>1039.096</ele>
        <time>2012-08-03T11:00:10Z</time>
      </trkpt>
      <trkpt lat="41.99577" lon="-8.24281">
        <ele>1038.915</ele>
        <time>2012-08-03T11:00:24Z</time>
      </trkpt>
      <trkpt lat="41.99582" lon="-8.24286">
        <ele>1038.448</ele>
        <time>2012-08-03T11:00:36Z</time>
      </trkpt>
      <trkpt lat="41.99586" lon="-8.24281">
        <ele>1037.913</ele>
        <time>2012-08-03T11:00:45Z</time>
      </trkpt>
      <trkpt lat="41.99586" lon="-8.24279">
        <ele>1037.939</ele>
        <time>2012-08-03T11:00:59Z</time>
      </trkpt>
      <trkpt lat="41.99587" lon="-8.24279">
        <ele>1039.001</ele>
        <time>2012-08-03T11:01:38Z</time>
      </trkpt>
      <trkpt lat="41.99591" lon="-8.24274">
        <ele>1038.368</ele>
        <time>2012-08-03T11:02:22Z</time>
      </trkpt>
      <trkpt lat="41.99599" lon="-8.24262">
        <ele>1036.51</ele>
        <time>2012-08-03T11:02:37Z</time>
      </trkpt>
      <trkpt lat="41.99602" lon="-8.24262">
        <ele>1036.886</ele>
        <time>2012-08-03T11:02:41Z</time>
      </trkpt>
      <trkpt lat="41.99613" lon="-8.24253">
        <ele>1036.103</ele>
        <time>2012-08-03T11:02:58Z</time>
      </trkpt>
      <trkpt lat="41.99618" lon="-8.24251">
        <ele>1036.589</ele>
        <time>2012-08-03T11:03:05Z</time>
      </trkpt>
      <trkpt lat="41.99624" lon="-8.24241">
        <ele>1038.194</ele>
        <time>2012-08-03T11:03:17Z</time>
      </trkpt>
      <trkpt lat="41.99627" lon="-8.24238">
        <ele>1038.466</ele>
        <time>2012-08-03T11:03:20Z</time>
      </trkpt>
      <trkpt lat="41.99631" lon="-8.24233">
        <ele>1038.813</ele>
        <time>2012-08-03T11:03:25Z</time>
      </trkpt>
      <trkpt lat="41.99632" lon="-8.24232">
        <ele>1039.748</ele>
        <time>2012-08-03T11:03:27Z</time>
      </trkpt>
      <trkpt lat="41.99641" lon="-8.24229">
        <ele>1042.838</ele>
        <time>2012-08-03T11:03:40Z</time>
      </trkpt>
      <trkpt lat="41.99645" lon="-8.24229">
        <ele>1044.991</ele>
        <time>2012-08-03T11:03:49Z</time>
      </trkpt>
      <trkpt lat="41.99646" lon="-8.24225">
        <ele>1044.976</ele>
        <time>2012-08-03T11:03:51Z</time>
      </trkpt>
      <trkpt lat="41.99655" lon="-8.24222">
        <ele>1045.556</ele>
        <time>2012-08-03T11:04:02Z</time>
      </trkpt>
      <trkpt lat="41.99657" lon="-8.24221">
        <ele>1045.724</ele>
        <time>2012-08-03T11:04:03Z</time>
      </trkpt>
      <trkpt lat="41.99663" lon="-8.24217">
        <ele>1046.413</ele>
        <time>2012-08-03T11:04:10Z</time>
      </trkpt>
      <trkpt lat="41.99669" lon="-8.24218">
        <ele>1046.889</ele>
        <time>2012-08-03T11:04:18Z</time>
      </trkpt>
      <trkpt lat="41.99674" lon="-8.24215">
        <ele>1048.202</ele>
        <time>2012-08-03T11:04:24Z</time>
      </trkpt>
      <trkpt lat="41.99685" lon="-8.24208">
        <ele>1052.408</ele>
        <time>2012-08-03T11:04:36Z</time>
      </trkpt>
      <trkpt lat="41.99689" lon="-8.24205">
        <ele>1054.056</ele>
        <time>2012-08-03T11:04:44Z</time>
      </trkpt>
      <trkpt lat="41.99691" lon="-8.24203">
        <ele>1054.406</ele>
        <time>2012-08-03T11:04:47Z</time>
      </trkpt>
      <trkpt lat="41.99699" lon="-8.24197">
        <ele>1053.464</ele>
        <time>2012-08-03T11:04:58Z</time>
      </trkpt>
      <trkpt lat="41.99703" lon="-8.24194">
        <ele>1052.57</ele>
        <time>2012-08-03T11:05:03Z</time>
      </trkpt>
      <trkpt lat="41.99716" lon="-8.24188">
        <ele>1053.773</ele>
        <time>2012-08-03T11:05:18Z</time>
      </trkpt>
      <trkpt lat="41.99718" lon="-8.24185">
        <ele>1054.878</ele>
        <time>2012-08-03T11:05:21Z</time>
      </trkpt>
      <trkpt lat="41.9972" lon="-8.24182">
        <ele>1054.773</ele>
        <time>2012-08-03T11:05:24Z</time>
      </trkpt>
      <trkpt lat="41.99722" lon="-8.2418">
        <ele>1055.082</ele>
        <time>2012-08-03T11:05:28Z</time>
      </trkpt>
      <trkpt lat="41.99725" lon="-8.24178">
        <ele>1055.51</ele>
        <time>2012-08-03T11:05:31Z</time>
      </trkpt>
      <trkpt lat="41.99729" lon="-8.24174">
        <ele>1058.8</ele>
        <time>2012-08-03T11:05:35Z</time>
      </trkpt>
      <trkpt lat="41.99734" lon="-8.24167">
        <ele>1057.591</ele>
        <time>2012-08-03T11:05:42Z</time>
      </trkpt>
      <trkpt lat="41.99734" lon="-8.24164">
        <ele>1057.296</ele>
        <time>2012-08-03T11:05:45Z</time>
      </trkpt>
      <trkpt lat="41.9974" lon="-8.2415">
        <ele>1058.703</ele>
        <time>2012-08-03T11:05:58Z</time>
      </trkpt>
      <trkpt lat="41.99741" lon="-8.24146">
        <ele>1060.133</ele>
        <time>2012-08-03T11:06:13Z</time>
      </trkpt>
      <trkpt lat="41.99741" lon="-8.24145">
        <ele>1060.437</ele>
        <time>2012-08-03T11:06:14Z</time>
      </trkpt>
      <trkpt lat="41.9974" lon="-8.24138">
        <ele>1062.353</ele>
        <time>2012-08-03T11:06:24Z</time>
      </trkpt>
      <trkpt lat="41.99743" lon="-8.24127">
        <ele>1063.092</ele>
        <time>2012-08-03T11:06:34Z</time>
      </trkpt>
      <trkpt lat="41.99752" lon="-8.24111">
        <ele>1066.064</ele>
        <time>2012-08-03T11:06:50Z</time>
      </trkpt>
      <trkpt lat="41.99753" lon="-8.2411">
        <ele>1066.797</ele>
        <time>2012-08-03T11:06:51Z</time>
      </trkpt>
      <trkpt lat="41.99751" lon="-8.24108">
        <ele>1068.132</ele>
        <time>2012-08-03T11:06:54Z</time>
      </trkpt>
      <trkpt lat="41.99753" lon="-8.24097">
        <ele>1069.87</ele>
        <time>2012-08-03T11:07:04Z</time>
      </trkpt>
      <trkpt lat="41.99754" lon="-8.24095">
        <ele>1070.239</ele>
        <time>2012-08-03T11:07:06Z</time>
      </trkpt>
      <trkpt lat="41.99756" lon="-8.24089">
        <ele>1071.17</ele>
        <time>2012-08-03T11:07:11Z</time>
      </trkpt>
      <trkpt lat="41.99761" lon="-8.2408">
        <ele>1072.079</ele>
        <time>2012-08-03T11:07:22Z</time>
      </trkpt>
      <trkpt lat="41.99763" lon="-8.24068">
        <ele>1072.329</ele>
        <time>2012-08-03T11:07:32Z</time>
      </trkpt>
      <trkpt lat="41.99762" lon="-8.24067">
        <ele>1072.949</ele>
        <time>2012-08-03T11:07:34Z</time>
      </trkpt>
      <trkpt lat="41.99761" lon="-8.24065">
        <ele>1073.423</ele>
        <time>2012-08-03T11:07:36Z</time>
      </trkpt>
      <trkpt lat="41.99761" lon="-8.24059">
        <ele>1073.53</ele>
        <time>2012-08-03T11:07:40Z</time>
      </trkpt>
      <trkpt lat="41.99761" lon="-8.2405">
        <ele>1075.301</ele>
        <time>2012-08-03T11:07:46Z</time>
      </trkpt>
      <trkpt lat="41.99761" lon="-8.24043">
        <ele>1077.164</ele>
        <time>2012-08-03T11:07:52Z</time>
      </trkpt>
      <trkpt lat="41.99762" lon="-8.24019">
        <ele>1077.07</ele>
        <time>2012-08-03T11:08:08Z</time>
      </trkpt>
      <trkpt lat="41.99763" lon="-8.24008">
        <ele>1075.224</ele>
        <time>2012-08-03T11:08:16Z</time>
      </trkpt>
      <trkpt lat="41.99765" lon="-8.23991">
        <ele>1075.275</ele>
        <time>2012-08-03T11:08:27Z</time>
      </trkpt>
      <trkpt lat="41.99765" lon="-8.23989">
        <ele>1075.275</ele>
        <time>2012-08-03T11:08:29Z</time>
      </trkpt>
      <trkpt lat="41.99764" lon="-8.23982">
        <ele>1076.327</ele>
        <time>2012-08-03T11:08:35Z</time>
      </trkpt>
      <trkpt lat="41.9977" lon="-8.23963">
        <ele>1075.772</ele>
        <time>2012-08-03T11:08:51Z</time>
      </trkpt>
      <trkpt lat="41.9977" lon="-8.23941">
        <ele>1077.444</ele>
        <time>2012-08-03T11:09:07Z</time>
      </trkpt>
      <trkpt lat="41.99761" lon="-8.23917">
        <ele>1077.781</ele>
        <time>2012-08-03T11:09:23Z</time>
      </trkpt>
      <trkpt lat="41.99761" lon="-8.23916">
        <ele>1077.652</ele>
        <time>2012-08-03T11:09:24Z</time>
      </trkpt>
      <trkpt lat="41.99759" lon="-8.23909">
        <ele>1078.042</ele>
        <time>2012-08-03T11:09:29Z</time>
      </trkpt>
      <trkpt lat="41.99756" lon="-8.23903">
        <ele>1076.694</ele>
        <time>2012-08-03T11:09:34Z</time>
      </trkpt>
      <trkpt lat="41.99754" lon="-8.23899">
        <ele>1076.254</ele>
        <time>2012-08-03T11:09:37Z</time>
      </trkpt>
      <trkpt lat="41.99751" lon="-8.23892">
        <ele>1076.277</ele>
        <time>2012-08-03T11:09:43Z</time>
      </trkpt>
      <trkpt lat="41.9975" lon="-8.23887">
        <ele>1077.249</ele>
        <time>2012-08-03T11:09:46Z</time>
      </trkpt>
      <trkpt lat="41.99749" lon="-8.23882">
        <ele>1077.453</ele>
        <time>2012-08-03T11:09:49Z</time>
      </trkpt>
      <trkpt lat="41.99746" lon="-8.23879">
        <ele>1079.458</ele>
        <time>2012-08-03T11:09:55Z</time>
      </trkpt>
      <trkpt lat="41.9974" lon="-8.23873">
        <ele>1080.028</ele>
        <time>2012-08-03T11:10:00Z</time>
      </trkpt>
      <trkpt lat="41.99737" lon="-8.23867">
        <ele>1080.37</ele>
        <time>2012-08-03T11:10:05Z</time>
      </trkpt>
      <trkpt lat="41.99738" lon="-8.23865">
        <ele>1080.12</ele>
        <time>2012-08-03T11:10:07Z</time>
      </trkpt>
      <trkpt lat="41.9974" lon="-8.23846">
        <ele>1081.159</ele>
        <time>2012-08-03T11:10:20Z</time>
      </trkpt>
      <trkpt lat="41.9974" lon="-8.23844">
        <ele>1080.988</ele>
        <time>2012-08-03T11:10:22Z</time>
      </trkpt>
      <trkpt lat="41.99739" lon="-8.23842">
        <ele>1081.051</ele>
        <time>2012-08-03T11:10:24Z</time>
      </trkpt>
      <trkpt lat="41.99736" lon="-8.23833">
        <ele>1081.436</ele>
        <time>2012-08-03T11:10:31Z</time>
      </trkpt>
      <trkpt lat="41.99731" lon="-8.23828">
        <ele>1082.271</ele>
        <time>2012-08-03T11:10:38Z</time>
      </trkpt>
      <trkpt lat="41.99727" lon="-8.23822">
        <ele>1080.966</ele>
        <time>2012-08-03T11:10:44Z</time>
      </trkpt>
      <trkpt lat="41.9972" lon="-8.23814">
        <ele>1081.872</ele>
        <time>2012-08-03T11:10:52Z</time>
      </trkpt>
      <trkpt lat="41.99718" lon="-8.238">
        <ele>1082.533</ele>
        <time>2012-08-03T11:11:02Z</time>
      </trkpt>
      <trkpt lat="41.99717" lon="-8.23799">
        <ele>1083.14</ele>
        <time>2012-08-03T11:11:04Z</time>
      </trkpt>
      <trkpt lat="41.99717" lon="-8.23795">
        <ele>1083.781</ele>
        <time>2012-08-03T11:11:07Z</time>
      </trkpt>
      <trkpt lat="41.99708" lon="-8.23792">
        <ele>1086.11</ele>
        <time>2012-08-03T11:11:20Z</time>
      </trkpt>
      <trkpt lat="41.99698" lon="-8.23791">
        <ele>1088.064</ele>
        <time>2012-08-03T11:11:31Z</time>
      </trkpt>
      <trkpt lat="41.99683" lon="-8.23782">
        <ele>1089.957</ele>
        <time>2012-08-03T11:11:50Z</time>
      </trkpt>
      <trkpt lat="41.99672" lon="-8.2378">
        <ele>1091.111</ele>
        <time>2012-08-03T11:12:02Z</time>
      </trkpt>
      <trkpt lat="41.99667" lon="-8.23779">
        <ele>1090.69</ele>
        <time>2012-08-03T11:12:13Z</time>
      </trkpt>
      <trkpt lat="41.99659" lon="-8.23776">
        <ele>1090.643</ele>
        <time>2012-08-03T11:12:23Z</time>
      </trkpt>
      <trkpt lat="41.99655" lon="-8.23775">
        <ele>1090.38</ele>
        <time>2012-08-03T11:12:28Z</time>
      </trkpt>
      <trkpt lat="41.9964" lon="-8.23768">
        <ele>1089.856</ele>
        <time>2012-08-03T11:12:44Z</time>
      </trkpt>
      <trkpt lat="41.99632" lon="-8.23765">
        <ele>1089.958</ele>
        <time>2012-08-03T11:13:02Z</time>
      </trkpt>
      <trkpt lat="41.99615" lon="-8.23762">
        <ele>1091.73</ele>
        <time>2012-08-03T11:13:24Z</time>
      </trkpt>
      <trkpt lat="41.99606" lon="-8.23759">
        <ele>1092.142</ele>
        <time>2012-08-03T11:13:36Z</time>
      </trkpt>
      <trkpt lat="41.99589" lon="-8.23762">
        <ele>1092.6</ele>
        <time>2012-08-03T11:13:56Z</time>
      </trkpt>
      <trkpt lat="41.99579" lon="-8.23756">
        <ele>1093.169</ele>
        <time>2012-08-03T11:14:08Z</time>
      </trkpt>
      <trkpt lat="41.99571" lon="-8.23744">
        <ele>1094.635</ele>
        <time>2012-08-03T11:14:20Z</time>
      </trkpt>
      <trkpt lat="41.99561" lon="-8.2373">
        <ele>1095.429</ele>
        <time>2012-08-03T11:14:34Z</time>
      </trkpt>
      <trkpt lat="41.99555" lon="-8.23724">
        <ele>1096.55</ele>
        <time>2012-08-03T11:14:42Z</time>
      </trkpt>
      <trkpt lat="41.99556" lon="-8.23719">
        <ele>1097.326</ele>
        <time>2012-08-03T11:14:46Z</time>
      </trkpt>
      <trkpt lat="41.99553" lon="-8.23712">
        <ele>1097.908</ele>
        <time>2012-08-03T11:14:50Z</time>
      </trkpt>
      <trkpt lat="41.99552" lon="-8.23697">
        <ele>1096.035</ele>
        <time>2012-08-03T11:15:02Z</time>
      </trkpt>
      <trkpt lat="41.99547" lon="-8.23687">
        <ele>1094.542</ele>
        <time>2012-08-03T11:15:15Z</time>
      </trkpt>
      <trkpt lat="41.99545" lon="-8.23679">
        <ele>1091.914</ele>
        <time>2012-08-03T11:15:21Z</time>
      </trkpt>
      <trkpt lat="41.99543" lon="-8.23676">
        <ele>1092.015</ele>
        <time>2012-08-03T11:15:24Z</time>
      </trkpt>
      <trkpt lat="41.9954" lon="-8.23673">
        <ele>1092.76</ele>
        <time>2012-08-03T11:15:28Z</time>
      </trkpt>
      <trkpt lat="41.99536" lon="-8.23672">
        <ele>1093.406</ele>
        <time>2012-08-03T11:15:32Z</time>
      </trkpt>
      <trkpt lat="41.99534" lon="-8.23665">
        <ele>1095.319</ele>
        <time>2012-08-03T11:15:38Z</time>
      </trkpt>
      <trkpt lat="41.99532" lon="-8.23653">
        <ele>1097.395</ele>
        <time>2012-08-03T11:15:46Z</time>
      </trkpt>
      <trkpt lat="41.9953" lon="-8.23653">
        <ele>1097.417</ele>
        <time>2012-08-03T11:15:48Z</time>
      </trkpt>
      <trkpt lat="41.99525" lon="-8.23642">
        <ele>1099.372</ele>
        <time>2012-08-03T11:15:56Z</time>
      </trkpt>
      <trkpt lat="41.99518" lon="-8.23636">
        <ele>1100.882</ele>
        <time>2012-08-03T11:16:02Z</time>
      </trkpt>
      <trkpt lat="41.99514" lon="-8.2363">
        <ele>1101.852</ele>
        <time>2012-08-03T11:16:08Z</time>
      </trkpt>
      <trkpt lat="41.99513" lon="-8.23628">
        <ele>1102.636</ele>
        <time>2012-08-03T11:16:12Z</time>
      </trkpt>
      <trkpt lat="41.9951" lon="-8.23623">
        <ele>1103.433</ele>
        <time>2012-08-03T11:16:16Z</time>
      </trkpt>
      <trkpt lat="41.99504" lon="-8.23616">
        <ele>1104.552</ele>
        <time>2012-08-03T11:16:27Z</time>
      </trkpt>
      <trkpt lat="41.99502" lon="-8.23615">
        <ele>1105.248</ele>
        <time>2012-08-03T11:16:29Z</time>
      </trkpt>
      <trkpt lat="41.99499" lon="-8.23611">
        <ele>1104.69</ele>
        <time>2012-08-03T11:16:32Z</time>
      </trkpt>
      <trkpt lat="41.99499" lon="-8.23605">
        <ele>1105.531</ele>
        <time>2012-08-03T11:16:35Z</time>
      </trkpt>
      <trkpt lat="41.99494" lon="-8.23597">
        <ele>1108.135</ele>
        <time>2012-08-03T11:16:44Z</time>
      </trkpt>
      <trkpt lat="41.99488" lon="-8.23588">
        <ele>1109.583</ele>
        <time>2012-08-03T11:16:51Z</time>
      </trkpt>
      <trkpt lat="41.99485" lon="-8.23587">
        <ele>1110.721</ele>
        <time>2012-08-03T11:16:54Z</time>
      </trkpt>
      <trkpt lat="41.99473" lon="-8.2358">
        <ele>1113.851</ele>
        <time>2012-08-03T11:17:10Z</time>
      </trkpt>
      <trkpt lat="41.99468" lon="-8.23578">
        <ele>1114.327</ele>
        <time>2012-08-03T11:17:14Z</time>
      </trkpt>
      <trkpt lat="41.99468" lon="-8.23575">
        <ele>1114.182</ele>
        <time>2012-08-03T11:17:16Z</time>
      </trkpt>
      <trkpt lat="41.99465" lon="-8.23557">
        <ele>1116.141</ele>
        <time>2012-08-03T11:17:29Z</time>
      </trkpt>
      <trkpt lat="41.99473" lon="-8.23542">
        <ele>1117.189</ele>
        <time>2012-08-03T11:17:40Z</time>
      </trkpt>
      <trkpt lat="41.99484" lon="-8.23533">
        <ele>1118.331</ele>
        <time>2012-08-03T11:17:53Z</time>
      </trkpt>
      <trkpt lat="41.99496" lon="-8.23531">
        <ele>1121.11</ele>
        <time>2012-08-03T11:18:07Z</time>
      </trkpt>
      <trkpt lat="41.995" lon="-8.23528">
        <ele>1123.044</ele>
        <time>2012-08-03T11:18:13Z</time>
      </trkpt>
      <trkpt lat="41.9951" lon="-8.2352">
        <ele>1123.666</ele>
        <time>2012-08-03T11:18:24Z</time>
      </trkpt>
      <trkpt lat="41.99514" lon="-8.23518">
        <ele>1122.176</ele>
        <time>2012-08-03T11:18:28Z</time>
      </trkpt>
      <trkpt lat="41.99521" lon="-8.23514">
        <ele>1119.393</ele>
        <time>2012-08-03T11:18:36Z</time>
      </trkpt>
      <trkpt lat="41.99522" lon="-8.23509">
        <ele>1118.747</ele>
        <time>2012-08-03T11:18:40Z</time>
      </trkpt>
      <trkpt lat="41.99523" lon="-8.23499">
        <ele>1116.566</ele>
        <time>2012-08-03T11:18:46Z</time>
      </trkpt>
      <trkpt lat="41.99525" lon="-8.23496">
        <ele>1115.996</ele>
        <time>2012-08-03T11:18:48Z</time>
      </trkpt>
      <trkpt lat="41.99524" lon="-8.23492">
        <ele>1115.132</ele>
        <time>2012-08-03T11:18:51Z</time>
      </trkpt>
      <trkpt lat="41.99522" lon="-8.23488">
        <ele>1113.834</ele>
        <time>2012-08-03T11:18:55Z</time>
      </trkpt>
      <trkpt lat="41.9952" lon="-8.23486">
        <ele>1112.842</ele>
        <time>2012-08-03T11:18:58Z</time>
      </trkpt>
      <trkpt lat="41.99515" lon="-8.23483">
        <ele>1109.352</ele>
        <time>2012-08-03T11:19:04Z</time>
      </trkpt>
      <trkpt lat="41.99503" lon="-8.23476">
        <ele>1106.259</ele>
        <time>2012-08-03T11:19:16Z</time>
      </trkpt>
      <trkpt lat="41.99498" lon="-8.23473">
        <ele>1105.883</ele>
        <time>2012-08-03T11:19:21Z</time>
      </trkpt>
      <trkpt lat="41.99496" lon="-8.23471">
        <ele>1105.377</ele>
        <time>2012-08-03T11:19:23Z</time>
      </trkpt>
      <trkpt lat="41.99487" lon="-8.2346">
        <ele>1101.393</ele>
        <time>2012-08-03T11:19:37Z</time>
      </trkpt>
      <trkpt lat="41.99487" lon="-8.2346">
        <ele>1100.973</ele>
        <time>2012-08-03T11:19:38Z</time>
      </trkpt>
      <trkpt lat="41.99484" lon="-8.23451">
        <ele>1098.891</ele>
        <time>2012-08-03T11:19:47Z</time>
      </trkpt>
      <trkpt lat="41.99483" lon="-8.23446">
        <ele>1098.042</ele>
        <time>2012-08-03T11:19:52Z</time>
      </trkpt>
      <trkpt lat="41.99479" lon="-8.23443">
        <ele>1097.633</ele>
        <time>2012-08-03T11:19:56Z</time>
      </trkpt>
      <trkpt lat="41.99465" lon="-8.23448">
        <ele>1097.768</ele>
        <time>2012-08-03T11:20:09Z</time>
      </trkpt>
      <trkpt lat="41.99452" lon="-8.23444">
        <ele>1096.546</ele>
        <time>2012-08-03T11:20:26Z</time>
      </trkpt>
      <trkpt lat="41.9945" lon="-8.23438">
        <ele>1095.827</ele>
        <time>2012-08-03T11:20:36Z</time>
      </trkpt>
      <trkpt lat="41.99448" lon="-8.23434">
        <ele>1095.335</ele>
        <time>2012-08-03T11:20:38Z</time>
      </trkpt>
      <trkpt lat="41.99445" lon="-8.23426">
        <ele>1092.373</ele>
        <time>2012-08-03T11:20:49Z</time>
      </trkpt>
      <trkpt lat="41.99441" lon="-8.23419">
        <ele>1090.42</ele>
        <time>2012-08-03T11:21:02Z</time>
      </trkpt>
      <trkpt lat="41.9944" lon="-8.23416">
        <ele>1090.276</ele>
        <time>2012-08-03T11:21:04Z</time>
      </trkpt>
      <trkpt lat="41.99438" lon="-8.23413">
        <ele>1090.312</ele>
        <time>2012-08-03T11:21:06Z</time>
      </trkpt>
      <trkpt lat="41.99436" lon="-8.23409">
        <ele>1087.991</ele>
        <time>2012-08-03T11:21:13Z</time>
      </trkpt>
      <trkpt lat="41.99433" lon="-8.23407">
        <ele>1087.234</ele>
        <time>2012-08-03T11:21:16Z</time>
      </trkpt>
      <trkpt lat="41.9943" lon="-8.23403">
        <ele>1086.333</ele>
        <time>2012-08-03T11:21:19Z</time>
      </trkpt>
      <trkpt lat="41.99426" lon="-8.234">
        <ele>1085.702</ele>
        <time>2012-08-03T11:21:23Z</time>
      </trkpt>
      <trkpt lat="41.99417" lon="-8.234">
        <ele>1083.905</ele>
        <time>2012-08-03T11:21:35Z</time>
      </trkpt>
      <trkpt lat="41.99413" lon="-8.23401">
        <ele>1083.859</ele>
        <time>2012-08-03T11:21:39Z</time>
      </trkpt>
      <trkpt lat="41.99407" lon="-8.23402">
        <ele>1082.519</ele>
        <time>2012-08-03T11:21:55Z</time>
      </trkpt>
      <trkpt lat="41.99393" lon="-8.23411">
        <ele>1081.563</ele>
        <time>2012-08-03T11:22:12Z</time>
      </trkpt>
      <trkpt lat="41.9938" lon="-8.23422">
        <ele>1081.409</ele>
        <time>2012-08-03T11:22:25Z</time>
      </trkpt>
      <trkpt lat="41.99371" lon="-8.23429">
        <ele>1080.853</ele>
        <time>2012-08-03T11:22:39Z</time>
      </trkpt>
      <trkpt lat="41.9936" lon="-8.23433">
        <ele>1079.666</ele>
        <time>2012-08-03T11:22:51Z</time>
      </trkpt>
      <trkpt lat="41.99357" lon="-8.23429">
        <ele>1074.969</ele>
        <time>2012-08-03T11:23:05Z</time>
      </trkpt>
      <trkpt lat="41.99357" lon="-8.23426">
        <ele>1073.416</ele>
        <time>2012-08-03T11:23:08Z</time>
      </trkpt>
      <trkpt lat="41.99347" lon="-8.23425">
        <ele>1070.667</ele>
        <time>2012-08-03T11:23:13Z</time>
      </trkpt>
      <trkpt lat="41.99346" lon="-8.23422">
        <ele>1069.701</ele>
        <time>2012-08-03T11:23:16Z</time>
      </trkpt>
      <trkpt lat="41.99347" lon="-8.23416">
        <ele>1066.353</ele>
        <time>2012-08-03T11:23:28Z</time>
      </trkpt>
      <trkpt lat="41.99339" lon="-8.23405">
        <ele>1064.352</ele>
        <time>2012-08-03T11:23:46Z</time>
      </trkpt>
      <trkpt lat="41.99324" lon="-8.23393">
        <ele>1062.589</ele>
        <time>2012-08-03T11:24:10Z</time>
      </trkpt>
      <trkpt lat="41.99305" lon="-8.23385">
        <ele>1060.249</ele>
        <time>2012-08-03T11:24:36Z</time>
      </trkpt>
      <trkpt lat="41.99302" lon="-8.23381">
        <ele>1059.449</ele>
        <time>2012-08-03T11:24:57Z</time>
      </trkpt>
      <trkpt lat="41.99291" lon="-8.23371">
        <ele>1059.5</ele>
        <time>2012-08-03T11:25:14Z</time>
      </trkpt>
      <trkpt lat="41.99287" lon="-8.23363">
        <ele>1058.491</ele>
        <time>2012-08-03T11:25:22Z</time>
      </trkpt>
      <trkpt lat="41.99283" lon="-8.23353">
        <ele>1057.034</ele>
        <time>2012-08-03T11:25:36Z</time>
      </trkpt>
      <trkpt lat="41.9928" lon="-8.23339">
        <ele>1053.543</ele>
        <time>2012-08-03T11:25:59Z</time>
      </trkpt>
      <trkpt lat="41.99278" lon="-8.23334">
        <ele>1053.963</ele>
        <time>2012-08-03T11:26:03Z</time>
      </trkpt>
      <trkpt lat="41.99272" lon="-8.23323">
        <ele>1052.091</ele>
        <time>2012-08-03T11:26:18Z</time>
      </trkpt>
      <trkpt lat="41.99261" lon="-8.23318">
        <ele>1049.786</ele>
        <time>2012-08-03T11:26:32Z</time>
      </trkpt>
      <trkpt lat="41.99256" lon="-8.23311">
        <ele>1047.729</ele>
        <time>2012-08-03T11:26:45Z</time>
      </trkpt>
      <trkpt lat="41.99254" lon="-8.2331">
        <ele>1046.897</ele>
        <time>2012-08-03T11:26:53Z</time>
      </trkpt>
      <trkpt lat="41.99246" lon="-8.23306">
        <ele>1047.271</ele>
        <time>2012-08-03T11:27:07Z</time>
      </trkpt>
      <trkpt lat="41.99242" lon="-8.233">
        <ele>1046.441</ele>
        <time>2012-08-03T11:27:21Z</time>
      </trkpt>
      <trkpt lat="41.99233" lon="-8.23295">
        <ele>1043.84</ele>
        <time>2012-08-03T11:27:34Z</time>
      </trkpt>
      <trkpt lat="41.99233" lon="-8.23293">
        <ele>1042.602</ele>
        <time>2012-08-03T11:27:55Z</time>
      </trkpt>
      <trkpt lat="41.99234" lon="-8.23295">
        <ele>1043.458</ele>
        <time>2012-08-03T11:28:09Z</time>
      </trkpt>
      <trkpt lat="41.99227" lon="-8.23288">
        <ele>1043.57</ele>
        <time>2012-08-03T11:28:41Z</time>
      </trkpt>
      <trkpt lat="41.99213" lon="-8.23275">
        <ele>1040.559</ele>
        <time>2012-08-03T11:29:03Z</time>
      </trkpt>
      <trkpt lat="41.99212" lon="-8.23273">
        <ele>1040.076</ele>
        <time>2012-08-03T11:29:06Z</time>
      </trkpt>
      <trkpt lat="41.99204" lon="-8.23265">
        <ele>1036.459</ele>
        <time>2012-08-03T11:29:16Z</time>
      </trkpt>
      <trkpt lat="41.992" lon="-8.23254">
        <ele>1035.003</ele>
        <time>2012-08-03T11:29:30Z</time>
      </trkpt>
      <trkpt lat="41.99195" lon="-8.2325">
        <ele>1035.29</ele>
        <time>2012-08-03T11:29:39Z</time>
      </trkpt>
      <trkpt lat="41.99186" lon="-8.23237">
        <ele>1034.988</ele>
        <time>2012-08-03T11:29:52Z</time>
      </trkpt>
      <trkpt lat="41.99182" lon="-8.23233">
        <ele>1034.447</ele>
        <time>2012-08-03T11:29:57Z</time>
      </trkpt>
      <trkpt lat="41.9918" lon="-8.2322">
        <ele>1035.71</ele>
        <time>2012-08-03T11:30:11Z</time>
      </trkpt>
      <trkpt lat="41.9918" lon="-8.2321">
        <ele>1032.768</ele>
        <time>2012-08-03T11:30:22Z</time>
      </trkpt>
      <trkpt lat="41.99177" lon="-8.23202">
        <ele>1031.574</ele>
        <time>2012-08-03T11:30:27Z</time>
      </trkpt>
      <trkpt lat="41.99174" lon="-8.23201">
        <ele>1030.902</ele>
        <time>2012-08-03T11:30:30Z</time>
      </trkpt>
      <trkpt lat="41.99162" lon="-8.23194">
        <ele>1030.468</ele>
        <time>2012-08-03T11:30:39Z</time>
      </trkpt>
      <trkpt lat="41.99156" lon="-8.23189">
        <ele>1030.376</ele>
        <time>2012-08-03T11:30:50Z</time>
      </trkpt>
      <trkpt lat="41.99152" lon="-8.23188">
        <ele>1030.912</ele>
        <time>2012-08-03T11:30:54Z</time>
      </trkpt>
      <trkpt lat="41.99146" lon="-8.23187">
        <ele>1031.214</ele>
        <time>2012-08-03T11:30:58Z</time>
      </trkpt>
      <trkpt lat="41.99141" lon="-8.23185">
        <ele>1031.32</ele>
        <time>2012-08-03T11:31:03Z</time>
      </trkpt>
      <trkpt lat="41.99129" lon="-8.23177">
        <ele>1031.146</ele>
        <time>2012-08-03T11:31:16Z</time>
      </trkpt>
      <trkpt lat="41.99127" lon="-8.23177">
        <ele>1031.56</ele>
        <time>2012-08-03T11:31:17Z</time>
      </trkpt>
      <trkpt lat="41.99126" lon="-8.23175">
        <ele>1032.627</ele>
        <time>2012-08-03T11:31:20Z</time>
      </trkpt>
      <trkpt lat="41.99124" lon="-8.23173">
        <ele>1033.401</ele>
        <time>2012-08-03T11:31:22Z</time>
      </trkpt>
      <trkpt lat="41.99123" lon="-8.2317">
        <ele>1034.191</ele>
        <time>2012-08-03T11:31:25Z</time>
      </trkpt>
      <trkpt lat="41.99118" lon="-8.23169">
        <ele>1034.057</ele>
        <time>2012-08-03T11:31:29Z</time>
      </trkpt>
      <trkpt lat="41.99108" lon="-8.23162">
        <ele>1032.789</ele>
        <time>2012-08-03T11:31:42Z</time>
      </trkpt>
      <trkpt lat="41.99101" lon="-8.23156">
        <ele>1029.69</ele>
        <time>2012-08-03T11:32:00Z</time>
      </trkpt>
      <trkpt lat="41.99098" lon="-8.23151">
        <ele>1029.327</ele>
        <time>2012-08-03T11:32:13Z</time>
      </trkpt>
      <trkpt lat="41.99089" lon="-8.2314">
        <ele>1028.708</ele>
        <time>2012-08-03T11:32:25Z</time>
      </trkpt>
      <trkpt lat="41.99088" lon="-8.23133">
        <ele>1028.263</ele>
        <time>2012-08-03T11:32:31Z</time>
      </trkpt>
      <trkpt lat="41.99083" lon="-8.23124">
        <ele>1026.907</ele>
        <time>2012-08-03T11:32:39Z</time>
      </trkpt>
      <trkpt lat="41.99079" lon="-8.23123">
        <ele>1025.639</ele>
        <time>2012-08-03T11:32:43Z</time>
      </trkpt>
      <trkpt lat="41.99067" lon="-8.23115">
        <ele>1023.813</ele>
        <time>2012-08-03T11:32:52Z</time>
      </trkpt>
      <trkpt lat="41.99062" lon="-8.23109">
        <ele>1023.154</ele>
        <time>2012-08-03T11:32:57Z</time>
      </trkpt>
      <trkpt lat="41.99055" lon="-8.23102">
        <ele>1024.388</ele>
        <time>2012-08-03T11:33:05Z</time>
      </trkpt>
      <trkpt lat="41.99053" lon="-8.23095">
        <ele>1024.85</ele>
        <time>2012-08-03T11:33:12Z</time>
      </trkpt>
      <trkpt lat="41.99052" lon="-8.23093">
        <ele>1024.757</ele>
        <time>2012-08-03T11:33:14Z</time>
      </trkpt>
      <trkpt lat="41.99056" lon="-8.23077">
        <ele>1024.036</ele>
        <time>2012-08-03T11:33:26Z</time>
      </trkpt>
      <trkpt lat="41.99061" lon="-8.23076">
        <ele>1024.735</ele>
        <time>2012-08-03T11:33:32Z</time>
      </trkpt>
      <trkpt lat="41.99069" lon="-8.23065">
        <ele>1026.43</ele>
        <time>2012-08-03T11:33:45Z</time>
      </trkpt>
      <trkpt lat="41.99071" lon="-8.23053">
        <ele>1024.808</ele>
        <time>2012-08-03T11:33:57Z</time>
      </trkpt>
      <trkpt lat="41.99071" lon="-8.23043">
        <ele>1023.118</ele>
        <time>2012-08-03T11:34:09Z</time>
      </trkpt>
      <trkpt lat="41.99071" lon="-8.23039">
        <ele>1022.249</ele>
        <time>2012-08-03T11:34:20Z</time>
      </trkpt>
      <trkpt lat="41.99071" lon="-8.23031">
        <ele>1022.63</ele>
        <time>2012-08-03T11:34:26Z</time>
      </trkpt>
      <trkpt lat="41.99069" lon="-8.23019">
        <ele>1024.068</ele>
        <time>2012-08-03T11:34:35Z</time>
      </trkpt>
      <trkpt lat="41.99067" lon="-8.23012">
        <ele>1023.399</ele>
        <time>2012-08-03T11:34:40Z</time>
      </trkpt>
      <trkpt lat="41.99068" lon="-8.2301">
        <ele>1023.009</ele>
        <time>2012-08-03T11:34:42Z</time>
      </trkpt>
      <trkpt lat="41.99066" lon="-8.23002">
        <ele>1022.619</ele>
        <time>2012-08-03T11:34:48Z</time>
      </trkpt>
      <trkpt lat="41.99061" lon="-8.22996">
        <ele>1024.275</ele>
        <time>2012-08-03T11:34:55Z</time>
      </trkpt>
      <trkpt lat="41.99055" lon="-8.22995">
        <ele>1023.526</ele>
        <time>2012-08-03T11:34:59Z</time>
      </trkpt>
      <trkpt lat="41.99051" lon="-8.2299">
        <ele>1022.815</ele>
        <time>2012-08-03T11:35:04Z</time>
      </trkpt>
      <trkpt lat="41.99051" lon="-8.22986">
        <ele>1022.813</ele>
        <time>2012-08-03T11:35:06Z</time>
      </trkpt>
      <trkpt lat="41.99051" lon="-8.22982">
        <ele>1023.945</ele>
        <time>2012-08-03T11:35:09Z</time>
      </trkpt>
      <trkpt lat="41.99043" lon="-8.22973">
        <ele>1022.859</ele>
        <time>2012-08-03T11:35:22Z</time>
      </trkpt>
      <trkpt lat="41.99031" lon="-8.22967">
        <ele>1021.315</ele>
        <time>2012-08-03T11:35:33Z</time>
      </trkpt>
      <trkpt lat="41.99029" lon="-8.22967">
        <ele>1021.018</ele>
        <time>2012-08-03T11:35:35Z</time>
      </trkpt>
      <trkpt lat="41.9902" lon="-8.22954">
        <ele>1022.556</ele>
        <time>2012-08-03T11:35:47Z</time>
      </trkpt>
      <trkpt lat="41.99021" lon="-8.2295">
        <ele>1023.232</ele>
        <time>2012-08-03T11:35:50Z</time>
      </trkpt>
      <trkpt lat="41.99019" lon="-8.22948">
        <ele>1021.449</ele>
        <time>2012-08-03T11:35:52Z</time>
      </trkpt>
      <trkpt lat="41.99013" lon="-8.22936">
        <ele>1019.801</ele>
        <time>2012-08-03T11:36:04Z</time>
      </trkpt>
      <trkpt lat="41.99012" lon="-8.2293">
        <ele>1018.412</ele>
        <time>2012-08-03T11:36:10Z</time>
      </trkpt>
      <trkpt lat="41.99011" lon="-8.22927">
        <ele>1017.269</ele>
        <time>2012-08-03T11:36:12Z</time>
      </trkpt>
      <trkpt lat="41.99014" lon="-8.22911">
        <ele>1014.61</ele>
        <time>2012-08-03T11:36:25Z</time>
      </trkpt>
      <trkpt lat="41.99016" lon="-8.22907">
        <ele>1014.44</ele>
        <time>2012-08-03T11:36:35Z</time>
      </trkpt>
      <trkpt lat="41.99019" lon="-8.22896">
        <ele>1013.548</ele>
        <time>2012-08-03T11:36:46Z</time>
      </trkpt>
      <trkpt lat="41.9902" lon="-8.22894">
        <ele>1013.057</ele>
        <time>2012-08-03T11:36:47Z</time>
      </trkpt>
      <trkpt lat="41.99023" lon="-8.22884">
        <ele>1012.86</ele>
        <time>2012-08-03T11:36:57Z</time>
      </trkpt>
      <trkpt lat="41.99022" lon="-8.22877">
        <ele>1011.372</ele>
        <time>2012-08-03T11:37:03Z</time>
      </trkpt>
      <trkpt lat="41.99022" lon="-8.22863">
        <ele>1010.791</ele>
        <time>2012-08-03T11:37:13Z</time>
      </trkpt>
      <trkpt lat="41.99024" lon="-8.22854">
        <ele>1010.012</ele>
        <time>2012-08-03T11:37:20Z</time>
      </trkpt>
      <trkpt lat="41.99019" lon="-8.22848">
        <ele>1008.42</ele>
        <time>2012-08-03T11:37:26Z</time>
      </trkpt>
      <trkpt lat="41.99013" lon="-8.22843">
        <ele>1007.656</ele>
        <time>2012-08-03T11:37:39Z</time>
      </trkpt>
      <trkpt lat="41.99007" lon="-8.22834">
        <ele>1007.824</ele>
        <time>2012-08-03T11:37:51Z</time>
      </trkpt>
      <trkpt lat="41.99007" lon="-8.22833">
        <ele>1007.916</ele>
        <time>2012-08-03T11:37:52Z</time>
      </trkpt>
      <trkpt lat="41.99002" lon="-8.22826">
        <ele>1006.637</ele>
        <time>2012-08-03T11:37:57Z</time>
      </trkpt>
      <trkpt lat="41.98991" lon="-8.22812">
        <ele>1005.467</ele>
        <time>2012-08-03T11:38:10Z</time>
      </trkpt>
      <trkpt lat="41.9898" lon="-8.22805">
        <ele>1003.887</ele>
        <time>2012-08-03T11:38:20Z</time>
      </trkpt>
      <trkpt lat="41.98976" lon="-8.22805">
        <ele>1004.297</ele>
        <time>2012-08-03T11:38:26Z</time>
      </trkpt>
      <trkpt lat="41.98974" lon="-8.228">
        <ele>1004.833</ele>
        <time>2012-08-03T11:38:31Z</time>
      </trkpt>
      <trkpt lat="41.98968" lon="-8.22793">
        <ele>1004.985</ele>
        <time>2012-08-03T11:38:40Z</time>
      </trkpt>
      <trkpt lat="41.98966" lon="-8.2279">
        <ele>1004.506</ele>
        <time>2012-08-03T11:38:43Z</time>
      </trkpt>
      <trkpt lat="41.98958" lon="-8.22778">
        <ele>1004.226</ele>
        <time>2012-08-03T11:38:56Z</time>
      </trkpt>
      <trkpt lat="41.98949" lon="-8.2277">
        <ele>1006.559</ele>
        <time>2012-08-03T11:39:07Z</time>
      </trkpt>
      <trkpt lat="41.98932" lon="-8.22751">
        <ele>1007.771</ele>
        <time>2012-08-03T11:39:27Z</time>
      </trkpt>
      <trkpt lat="41.98927" lon="-8.22747">
        <ele>1007.35</ele>
        <time>2012-08-03T11:39:31Z</time>
      </trkpt>
      <trkpt lat="41.98917" lon="-8.22737">
        <ele>1006.825</ele>
        <time>2012-08-03T11:39:39Z</time>
      </trkpt>
      <trkpt lat="41.98915" lon="-8.22735">
        <ele>1006.645</ele>
        <time>2012-08-03T11:39:42Z</time>
      </trkpt>
      <trkpt lat="41.98906" lon="-8.22729">
        <ele>1001.219</ele>
        <time>2012-08-03T11:39:54Z</time>
      </trkpt>
      <trkpt lat="41.98903" lon="-8.22726">
        <ele>999.83</ele>
        <time>2012-08-03T11:39:57Z</time>
      </trkpt>
      <trkpt lat="41.989" lon="-8.22725">
        <ele>998.003</ele>
        <time>2012-08-03T11:40:00Z</time>
      </trkpt>
      <trkpt lat="41.98895" lon="-8.22724">
        <ele>996.578</ele>
        <time>2012-08-03T11:40:04Z</time>
      </trkpt>
      <trkpt lat="41.9889" lon="-8.22718">
        <ele>994.829</ele>
        <time>2012-08-03T11:40:10Z</time>
      </trkpt>
      <trkpt lat="41.9889" lon="-8.22713">
        <ele>995.415</ele>
        <time>2012-08-03T11:40:13Z</time>
      </trkpt>
      <trkpt lat="41.98888" lon="-8.22712">
        <ele>995.468</ele>
        <time>2012-08-03T11:40:15Z</time>
      </trkpt>
      <trkpt lat="41.9888" lon="-8.22709">
        <ele>994.499</ele>
        <time>2012-08-03T11:40:29Z</time>
      </trkpt>
      <trkpt lat="41.98874" lon="-8.22701">
        <ele>992.698</ele>
        <time>2012-08-03T11:40:45Z</time>
      </trkpt>
      <trkpt lat="41.9887" lon="-8.22698">
        <ele>991.932</ele>
        <time>2012-08-03T11:40:49Z</time>
      </trkpt>
      <trkpt lat="41.98865" lon="-8.22694">
        <ele>990.51</ele>
        <time>2012-08-03T11:40:54Z</time>
      </trkpt>
      <trkpt lat="41.98863" lon="-8.22693">
        <ele>989.456</ele>
        <time>2012-08-03T11:40:57Z</time>
      </trkpt>
      <trkpt lat="41.98856" lon="-8.22685">
        <ele>987.402</ele>
        <time>2012-08-03T11:41:08Z</time>
      </trkpt>
      <trkpt lat="41.98853" lon="-8.22676">
        <ele>987.883</ele>
        <time>2012-08-03T11:41:20Z</time>
      </trkpt>
      <trkpt lat="41.98853" lon="-8.22671">
        <ele>986.726</ele>
        <time>2012-08-03T11:41:26Z</time>
      </trkpt>
      <trkpt lat="41.98848" lon="-8.22666">
        <ele>986.578</ele>
        <time>2012-08-03T11:41:31Z</time>
      </trkpt>
      <trkpt lat="41.98846" lon="-8.22661">
        <ele>986.853</ele>
        <time>2012-08-03T11:41:36Z</time>
      </trkpt>
      <trkpt lat="41.98845" lon="-8.22656">
        <ele>985.967</ele>
        <time>2012-08-03T11:41:40Z</time>
      </trkpt>
      <trkpt lat="41.98843" lon="-8.22649">
        <ele>986.474</ele>
        <time>2012-08-03T11:41:46Z</time>
      </trkpt>
      <trkpt lat="41.98836" lon="-8.22632">
        <ele>985.493</ele>
        <time>2012-08-03T11:42:01Z</time>
      </trkpt>
      <trkpt lat="41.98834" lon="-8.22628">
        <ele>986.139</ele>
        <time>2012-08-03T11:42:09Z</time>
      </trkpt>
      <trkpt lat="41.9883" lon="-8.22625">
        <ele>984.136</ele>
        <time>2012-08-03T11:42:14Z</time>
      </trkpt>
      <trkpt lat="41.98829" lon="-8.2262">
        <ele>985.486</ele>
        <time>2012-08-03T11:42:19Z</time>
      </trkpt>
      <trkpt lat="41.9882" lon="-8.22613">
        <ele>982.303</ele>
        <time>2012-08-03T11:42:29Z</time>
      </trkpt>
      <trkpt lat="41.98816" lon="-8.22603">
        <ele>980.734</ele>
        <time>2012-08-03T11:42:42Z</time>
      </trkpt>
      <trkpt lat="41.98814" lon="-8.22603">
        <ele>980.388</ele>
        <time>2012-08-03T11:42:51Z</time>
      </trkpt>
      <trkpt lat="41.98806" lon="-8.22592">
        <ele>981.171</ele>
        <time>2012-08-03T11:43:04Z</time>
      </trkpt>
      <trkpt lat="41.98806" lon="-8.22589">
        <ele>981.59</ele>
        <time>2012-08-03T11:43:09Z</time>
      </trkpt>
      <trkpt lat="41.98803" lon="-8.22584">
        <ele>982.258</ele>
        <time>2012-08-03T11:43:13Z</time>
      </trkpt>
      <trkpt lat="41.98802" lon="-8.22579">
        <ele>981.257</ele>
        <time>2012-08-03T11:43:16Z</time>
      </trkpt>
      <trkpt lat="41.98801" lon="-8.22577">
        <ele>981.214</ele>
        <time>2012-08-03T11:43:18Z</time>
      </trkpt>
      <trkpt lat="41.98797" lon="-8.22561">
        <ele>978.807</ele>
        <time>2012-08-03T11:43:30Z</time>
      </trkpt>
      <trkpt lat="41.98787" lon="-8.22547">
        <ele>978.707</ele>
        <time>2012-08-03T11:43:43Z</time>
      </trkpt>
      <trkpt lat="41.98783" lon="-8.22541">
        <ele>980.025</ele>
        <time>2012-08-03T11:43:50Z</time>
      </trkpt>
      <trkpt lat="41.98781" lon="-8.22532">
        <ele>981.436</ele>
        <time>2012-08-03T11:43:57Z</time>
      </trkpt>
      <trkpt lat="41.9878" lon="-8.22527">
        <ele>981.564</ele>
        <time>2012-08-03T11:44:01Z</time>
      </trkpt>
      <trkpt lat="41.98779" lon="-8.2252">
        <ele>981.81</ele>
        <time>2012-08-03T11:44:07Z</time>
      </trkpt>
      <trkpt lat="41.98778" lon="-8.22516">
        <ele>981.782</ele>
        <time>2012-08-03T11:44:10Z</time>
      </trkpt>
      <trkpt lat="41.98777" lon="-8.22512">
        <ele>981.624</ele>
        <time>2012-08-03T11:44:13Z</time>
      </trkpt>
      <trkpt lat="41.98774" lon="-8.22501">
        <ele>983.664</ele>
        <time>2012-08-03T11:44:24Z</time>
      </trkpt>
      <trkpt lat="41.9877" lon="-8.22494">
        <ele>983.668</ele>
        <time>2012-08-03T11:44:31Z</time>
      </trkpt>
      <trkpt lat="41.98768" lon="-8.22478">
        <ele>983.881</ele>
        <time>2012-08-03T11:44:45Z</time>
      </trkpt>
      <trkpt lat="41.98761" lon="-8.22466">
        <ele>985.387</ele>
        <time>2012-08-03T11:44:58Z</time>
      </trkpt>
      <trkpt lat="41.9876" lon="-8.22465">
        <ele>985.108</ele>
        <time>2012-08-03T11:44:59Z</time>
      </trkpt>
      <trkpt lat="41.98753" lon="-8.22446">
        <ele>984.151</ele>
        <time>2012-08-03T11:45:13Z</time>
      </trkpt>
      <trkpt lat="41.98747" lon="-8.22439">
        <ele>984.562</ele>
        <time>2012-08-03T11:45:20Z</time>
      </trkpt>
      <trkpt lat="41.98746" lon="-8.22437">
        <ele>984.562</ele>
        <time>2012-08-03T11:45:22Z</time>
      </trkpt>
      <trkpt lat="41.98744" lon="-8.22433">
        <ele>984.203</ele>
        <time>2012-08-03T11:45:25Z</time>
      </trkpt>
      <trkpt lat="41.9874" lon="-8.22414">
        <ele>985.499</ele>
        <time>2012-08-03T11:45:40Z</time>
      </trkpt>
      <trkpt lat="41.98742" lon="-8.22401">
        <ele>985.258</ele>
        <time>2012-08-03T11:45:53Z</time>
      </trkpt>
      <trkpt lat="41.98743" lon="-8.224">
        <ele>984.799</ele>
        <time>2012-08-03T11:45:55Z</time>
      </trkpt>
      <trkpt lat="41.98748" lon="-8.2239">
        <ele>980.264</ele>
        <time>2012-08-03T11:46:09Z</time>
      </trkpt>
      <trkpt lat="41.9875" lon="-8.22379">
        <ele>973.704</ele>
        <time>2012-08-03T11:46:22Z</time>
      </trkpt>
      <trkpt lat="41.9875" lon="-8.22364">
        <ele>970.982</ele>
        <time>2012-08-03T11:46:33Z</time>
      </trkpt>
      <trkpt lat="41.98742" lon="-8.22354">
        <ele>970.265</ele>
        <time>2012-08-03T11:46:44Z</time>
      </trkpt>
      <trkpt lat="41.98741" lon="-8.22353">
        <ele>969.701</ele>
        <time>2012-08-03T11:46:46Z</time>
      </trkpt>
      <trkpt lat="41.98737" lon="-8.22349">
        <ele>968.041</ele>
        <time>2012-08-03T11:46:51Z</time>
      </trkpt>
      <trkpt lat="41.98733" lon="-8.22345">
        <ele>967.354</ele>
        <time>2012-08-03T11:46:55Z</time>
      </trkpt>
      <trkpt lat="41.98731" lon="-8.22338">
        <ele>968.41</ele>
        <time>2012-08-03T11:47:00Z</time>
      </trkpt>
      <trkpt lat="41.98732" lon="-8.22323">
        <ele>970.182</ele>
        <time>2012-08-03T11:47:12Z</time>
      </trkpt>
      <trkpt lat="41.98733" lon="-8.22321">
        <ele>969.894</ele>
        <time>2012-08-03T11:47:14Z</time>
      </trkpt>
      <trkpt lat="41.98735" lon="-8.22313">
        <ele>969.72</ele>
        <time>2012-08-03T11:47:21Z</time>
      </trkpt>
      <trkpt lat="41.98733" lon="-8.22306">
        <ele>969.17</ele>
        <time>2012-08-03T11:47:28Z</time>
      </trkpt>
      <trkpt lat="41.98729" lon="-8.22298">
        <ele>968.869</ele>
        <time>2012-08-03T11:47:41Z</time>
      </trkpt>
      <trkpt lat="41.98721" lon="-8.22294">
        <ele>968.405</ele>
        <time>2012-08-03T11:47:56Z</time>
      </trkpt>
      <trkpt lat="41.9872" lon="-8.22293">
        <ele>967.815</ele>
        <time>2012-08-03T11:48:02Z</time>
      </trkpt>
      <trkpt lat="41.98716" lon="-8.22287">
        <ele>966.886</ele>
        <time>2012-08-03T11:48:06Z</time>
      </trkpt>
      <trkpt lat="41.98709" lon="-8.22278">
        <ele>966.05</ele>
        <time>2012-08-03T11:48:20Z</time>
      </trkpt>
      <trkpt lat="41.98707" lon="-8.22274">
        <ele>965.065</ele>
        <time>2012-08-03T11:48:25Z</time>
      </trkpt>
      <trkpt lat="41.98701" lon="-8.22269">
        <ele>963.542</ele>
        <time>2012-08-03T11:48:32Z</time>
      </trkpt>
      <trkpt lat="41.98695" lon="-8.2226">
        <ele>961.932</ele>
        <time>2012-08-03T11:48:43Z</time>
      </trkpt>
      <trkpt lat="41.98692" lon="-8.22256">
        <ele>960.187</ele>
        <time>2012-08-03T11:48:48Z</time>
      </trkpt>
      <trkpt lat="41.98688" lon="-8.22243">
        <ele>958.112</ele>
        <time>2012-08-03T11:49:01Z</time>
      </trkpt>
      <trkpt lat="41.98687" lon="-8.22238">
        <ele>957.296</ele>
        <time>2012-08-03T11:49:13Z</time>
      </trkpt>
      <trkpt lat="41.98686" lon="-8.22233">
        <ele>957.589</ele>
        <time>2012-08-03T11:49:16Z</time>
      </trkpt>
      <trkpt lat="41.9869" lon="-8.22222">
        <ele>954.965</ele>
        <time>2012-08-03T11:49:30Z</time>
      </trkpt>
      <trkpt lat="41.98692" lon="-8.22209">
        <ele>953.192</ele>
        <time>2012-08-03T11:49:46Z</time>
      </trkpt>
      <trkpt lat="41.9868" lon="-8.22191">
        <ele>950.864</ele>
        <time>2012-08-03T11:50:13Z</time>
      </trkpt>
      <trkpt lat="41.98675" lon="-8.2219">
        <ele>950.378</ele>
        <time>2012-08-03T11:50:17Z</time>
      </trkpt>
      <trkpt lat="41.98663" lon="-8.22183">
        <ele>948.044</ele>
        <time>2012-08-03T11:50:28Z</time>
      </trkpt>
      <trkpt lat="41.98659" lon="-8.22178">
        <ele>944.714</ele>
        <time>2012-08-03T11:50:37Z</time>
      </trkpt>
      <trkpt lat="41.98655" lon="-8.22171">
        <ele>943.836</ele>
        <time>2012-08-03T11:50:44Z</time>
      </trkpt>
      <trkpt lat="41.98657" lon="-8.22154">
        <ele>939.334</ele>
        <time>2012-08-03T11:51:00Z</time>
      </trkpt>
      <trkpt lat="41.98664" lon="-8.22156">
        <ele>938.682</ele>
        <time>2012-08-03T11:51:15Z</time>
      </trkpt>
      <trkpt lat="41.98671" lon="-8.22154">
        <ele>936.691</ele>
        <time>2012-08-03T11:51:33Z</time>
      </trkpt>
      <trkpt lat="41.98684" lon="-8.22153">
        <ele>935.134</ele>
        <time>2012-08-03T11:51:48Z</time>
      </trkpt>
      <trkpt lat="41.98694" lon="-8.22154">
        <ele>934.351</ele>
        <time>2012-08-03T11:52:01Z</time>
      </trkpt>
      <trkpt lat="41.98701" lon="-8.22151">
        <ele>928.501</ele>
        <time>2012-08-03T11:52:13Z</time>
      </trkpt>
      <trkpt lat="41.98706" lon="-8.22147">
        <ele>927.762</ele>
        <time>2012-08-03T11:52:20Z</time>
      </trkpt>
      <trkpt lat="41.98709" lon="-8.22144">
        <ele>926.957</ele>
        <time>2012-08-03T11:52:24Z</time>
      </trkpt>
      <trkpt lat="41.98713" lon="-8.22138">
        <ele>926.116</ele>
        <time>2012-08-03T11:52:30Z</time>
      </trkpt>
      <trkpt lat="41.98717" lon="-8.22134">
        <ele>925.155</ele>
        <time>2012-08-03T11:52:36Z</time>
      </trkpt>
      <trkpt lat="41.98723" lon="-8.22132">
        <ele>923.403</ele>
        <time>2012-08-03T11:52:43Z</time>
      </trkpt>
      <trkpt lat="41.98729" lon="-8.22124">
        <ele>924.913</ele>
        <time>2012-08-03T11:52:53Z</time>
      </trkpt>
      <trkpt lat="41.98742" lon="-8.22129">
        <ele>922.023</ele>
        <time>2012-08-03T11:53:10Z</time>
      </trkpt>
      <trkpt lat="41.98753" lon="-8.2214">
        <ele>916.733</ele>
        <time>2012-08-03T11:53:26Z</time>
      </trkpt>
      <trkpt lat="41.98756" lon="-8.22144">
        <ele>915.639</ele>
        <time>2012-08-03T11:53:31Z</time>
      </trkpt>
      <trkpt lat="41.98767" lon="-8.22154">
        <ele>913.095</ele>
        <time>2012-08-03T11:53:46Z</time>
      </trkpt>
      <trkpt lat="41.9877" lon="-8.2216">
        <ele>911.086</ele>
        <time>2012-08-03T11:53:53Z</time>
      </trkpt>
      <trkpt lat="41.98783" lon="-8.22163">
        <ele>908.523</ele>
        <time>2012-08-03T11:54:09Z</time>
      </trkpt>
      <trkpt lat="41.98786" lon="-8.22162">
        <ele>908.575</ele>
        <time>2012-08-03T11:54:22Z</time>
      </trkpt>
      <trkpt lat="41.98786" lon="-8.22162">
        <ele>908.422</ele>
        <time>2012-08-03T11:54:24Z</time>
      </trkpt>
      <trkpt lat="41.98788" lon="-8.2215">
        <ele>907.307</ele>
        <time>2012-08-03T11:54:37Z</time>
      </trkpt>
      <trkpt lat="41.98788" lon="-8.2214">
        <ele>906.807</ele>
        <time>2012-08-03T11:54:47Z</time>
      </trkpt>
      <trkpt lat="41.98789" lon="-8.22124">
        <ele>905.586</ele>
        <time>2012-08-03T11:55:02Z</time>
      </trkpt>
      <trkpt lat="41.9879" lon="-8.22112">
        <ele>901.705</ele>
        <time>2012-08-03T11:55:14Z</time>
      </trkpt>
      <trkpt lat="41.98792" lon="-8.22096">
        <ele>896.981</ele>
        <time>2012-08-03T11:55:31Z</time>
      </trkpt>
      <trkpt lat="41.98792" lon="-8.22084">
        <ele>895.99</ele>
        <time>2012-08-03T11:55:43Z</time>
      </trkpt>
      <trkpt lat="41.98794" lon="-8.22078">
        <ele>895.675</ele>
        <time>2012-08-03T11:55:58Z</time>
      </trkpt>
      <trkpt lat="41.98788" lon="-8.22068">
        <ele>894.013</ele>
        <time>2012-08-03T11:56:13Z</time>
      </trkpt>
      <trkpt lat="41.98778" lon="-8.22056">
        <ele>892.444</ele>
        <time>2012-08-03T11:56:28Z</time>
      </trkpt>
      <trkpt lat="41.98777" lon="-8.22045">
        <ele>890.731</ele>
        <time>2012-08-03T11:56:41Z</time>
      </trkpt>
      <trkpt lat="41.98775" lon="-8.22042">
        <ele>891.378</ele>
        <time>2012-08-03T11:57:02Z</time>
      </trkpt>
      <trkpt lat="41.98775" lon="-8.22036">
        <ele>891.627</ele>
        <time>2012-08-03T11:57:17Z</time>
      </trkpt>
      <trkpt lat="41.98777" lon="-8.22028">
        <ele>889.863</ele>
        <time>2012-08-03T11:57:30Z</time>
      </trkpt>
      <trkpt lat="41.98777" lon="-8.22027">
        <ele>889.751</ele>
        <time>2012-08-03T11:57:31Z</time>
      </trkpt>
      <trkpt lat="41.98778" lon="-8.22018">
        <ele>888.83</ele>
        <time>2012-08-03T11:57:39Z</time>
      </trkpt>
      <trkpt lat="41.98777" lon="-8.22006">
        <ele>885.256</ele>
        <time>2012-08-03T11:57:52Z</time>
      </trkpt>
      <trkpt lat="41.98776" lon="-8.21994">
        <ele>882.434</ele>
        <time>2012-08-03T11:58:06Z</time>
      </trkpt>
      <trkpt lat="41.98774" lon="-8.21984">
        <ele>880.283</ele>
        <time>2012-08-03T11:58:18Z</time>
      </trkpt>
      <trkpt lat="41.98768" lon="-8.21974">
        <ele>879.921</ele>
        <time>2012-08-03T11:58:30Z</time>
      </trkpt>
      <trkpt lat="41.98764" lon="-8.21962">
        <ele>878.518</ele>
        <time>2012-08-03T11:58:39Z</time>
      </trkpt>
      <trkpt lat="41.98765" lon="-8.2196">
        <ele>878.196</ele>
        <time>2012-08-03T11:58:41Z</time>
      </trkpt>
      <trkpt lat="41.98763" lon="-8.21951">
        <ele>878.679</ele>
        <time>2012-08-03T11:58:48Z</time>
      </trkpt>
      <trkpt lat="41.98765" lon="-8.21948">
        <ele>878.101</ele>
        <time>2012-08-03T11:58:52Z</time>
      </trkpt>
      <trkpt lat="41.98774" lon="-8.21958">
        <ele>876.059</ele>
        <time>2012-08-03T11:59:06Z</time>
      </trkpt>
      <trkpt lat="41.98775" lon="-8.21959">
        <ele>875.953</ele>
        <time>2012-08-03T11:59:08Z</time>
      </trkpt>
      <trkpt lat="41.98789" lon="-8.21955">
        <ele>874.551</ele>
        <time>2012-08-03T11:59:25Z</time>
      </trkpt>
      <trkpt lat="41.98789" lon="-8.21954">
        <ele>874.599</ele>
        <time>2012-08-03T11:59:26Z</time>
      </trkpt>
      <trkpt lat="41.98791" lon="-8.21942">
        <ele>874.843</ele>
        <time>2012-08-03T11:59:37Z</time>
      </trkpt>
      <trkpt lat="41.98791" lon="-8.21935">
        <ele>870.498</ele>
        <time>2012-08-03T11:59:47Z</time>
      </trkpt>
      <trkpt lat="41.98788" lon="-8.21923">
        <ele>865.109</ele>
        <time>2012-08-03T11:59:58Z</time>
      </trkpt>
      <trkpt lat="41.98784" lon="-8.2192">
        <ele>864.315</ele>
        <time>2012-08-03T12:00:12Z</time>
      </trkpt>
      <trkpt lat="41.98778" lon="-8.21915">
        <ele>862.283</ele>
        <time>2012-08-03T12:00:27Z</time>
      </trkpt>
      <trkpt lat="41.98775" lon="-8.21913">
        <ele>860.229</ele>
        <time>2012-08-03T12:00:32Z</time>
      </trkpt>
      <trkpt lat="41.98767" lon="-8.21908">
        <ele>857.634</ele>
        <time>2012-08-03T12:00:43Z</time>
      </trkpt>
      <trkpt lat="41.98763" lon="-8.219">
        <ele>854.879</ele>
        <time>2012-08-03T12:00:55Z</time>
      </trkpt>
      <trkpt lat="41.98763" lon="-8.21892">
        <ele>853.718</ele>
        <time>2012-08-03T12:01:09Z</time>
      </trkpt>
      <trkpt lat="41.98768" lon="-8.21891">
        <ele>851.099</ele>
        <time>2012-08-03T12:01:20Z</time>
      </trkpt>
      <trkpt lat="41.98771" lon="-8.21889">
        <ele>850.396</ele>
        <time>2012-08-03T12:01:34Z</time>
      </trkpt>
      <trkpt lat="41.98773" lon="-8.21886">
        <ele>849.937</ele>
        <time>2012-08-03T12:01:42Z</time>
      </trkpt>
      <trkpt lat="41.98766" lon="-8.21879">
        <ele>848.485</ele>
        <time>2012-08-03T12:01:54Z</time>
      </trkpt>
      <trkpt lat="41.98764" lon="-8.21876">
        <ele>848.005</ele>
        <time>2012-08-03T12:01:57Z</time>
      </trkpt>
      <trkpt lat="41.98762" lon="-8.21876">
        <ele>846.229</ele>
        <time>2012-08-03T12:01:59Z</time>
      </trkpt>
      <trkpt lat="41.9876" lon="-8.21872">
        <ele>845.736</ele>
        <time>2012-08-03T12:02:02Z</time>
      </trkpt>
      <trkpt lat="41.98756" lon="-8.2187">
        <ele>844.779</ele>
        <time>2012-08-03T12:02:07Z</time>
      </trkpt>
      <trkpt lat="41.9875" lon="-8.21865">
        <ele>841.977</ele>
        <time>2012-08-03T12:02:14Z</time>
      </trkpt>
      <trkpt lat="41.98753" lon="-8.21856">
        <ele>840.003</ele>
        <time>2012-08-03T12:02:27Z</time>
      </trkpt>
      <trkpt lat="41.98761" lon="-8.21855">
        <ele>839.115</ele>
        <time>2012-08-03T12:02:45Z</time>
      </trkpt>
      <trkpt lat="41.9877" lon="-8.21854">
        <ele>834.981</ele>
        <time>2012-08-03T12:02:59Z</time>
      </trkpt>
      <trkpt lat="41.98768" lon="-8.21843">
        <ele>832.095</ele>
        <time>2012-08-03T12:03:12Z</time>
      </trkpt>
      <trkpt lat="41.98767" lon="-8.2184">
        <ele>831.786</ele>
        <time>2012-08-03T12:03:17Z</time>
      </trkpt>
      <trkpt lat="41.98761" lon="-8.21834">
        <ele>830.648</ele>
        <time>2012-08-03T12:03:26Z</time>
      </trkpt>
      <trkpt lat="41.98752" lon="-8.21826">
        <ele>827.748</ele>
        <time>2012-08-03T12:03:38Z</time>
      </trkpt>
      <trkpt lat="41.98749" lon="-8.21823">
        <ele>827.85</ele>
        <time>2012-08-03T12:03:42Z</time>
      </trkpt>
      <trkpt lat="41.98744" lon="-8.21822">
        <ele>826.123</ele>
        <time>2012-08-03T12:03:54Z</time>
      </trkpt>
      <trkpt lat="41.9874" lon="-8.21822">
        <ele>825.054</ele>
        <time>2012-08-03T12:04:00Z</time>
      </trkpt>
      <trkpt lat="41.98736" lon="-8.21817">
        <ele>823.875</ele>
        <time>2012-08-03T12:04:06Z</time>
      </trkpt>
      <trkpt lat="41.98732" lon="-8.21815">
        <ele>823.099</ele>
        <time>2012-08-03T12:04:10Z</time>
      </trkpt>
      <trkpt lat="41.98727" lon="-8.21807">
        <ele>819.078</ele>
        <time>2012-08-03T12:04:24Z</time>
      </trkpt>
      <trkpt lat="41.98723" lon="-8.21799">
        <ele>818.606</ele>
        <time>2012-08-03T12:04:43Z</time>
      </trkpt>
      <trkpt lat="41.9872" lon="-8.21796">
        <ele>818.993</ele>
        <time>2012-08-03T12:04:49Z</time>
      </trkpt>
      <trkpt lat="41.98714" lon="-8.2179">
        <ele>817.711</ele>
        <time>2012-08-03T12:05:01Z</time>
      </trkpt>
      <trkpt lat="41.98709" lon="-8.21788">
        <ele>816.327</ele>
        <time>2012-08-03T12:05:15Z</time>
      </trkpt>
      <trkpt lat="41.98701" lon="-8.21784">
        <ele>816.504</ele>
        <time>2012-08-03T12:05:30Z</time>
      </trkpt>
      <trkpt lat="41.98696" lon="-8.21779">
        <ele>815.651</ele>
        <time>2012-08-03T12:05:41Z</time>
      </trkpt>
      <trkpt lat="41.98696" lon="-8.21773">
        <ele>814.919</ele>
        <time>2012-08-03T12:05:56Z</time>
      </trkpt>
      <trkpt lat="41.98698" lon="-8.21766">
        <ele>815.878</ele>
        <time>2012-08-03T12:06:08Z</time>
      </trkpt>
      <trkpt lat="41.98692" lon="-8.21761">
        <ele>815.546</ele>
        <time>2012-08-03T12:06:27Z</time>
      </trkpt>
      <trkpt lat="41.98688" lon="-8.21761">
        <ele>815.204</ele>
        <time>2012-08-03T12:06:31Z</time>
      </trkpt>
      <trkpt lat="41.98678" lon="-8.21761">
        <ele>811.754</ele>
        <time>2012-08-03T12:06:44Z</time>
      </trkpt>
      <trkpt lat="41.98671" lon="-8.2176">
        <ele>810.896</ele>
        <time>2012-08-03T12:06:58Z</time>
      </trkpt>
      <trkpt lat="41.98667" lon="-8.21766">
        <ele>806.533</ele>
        <time>2012-08-03T12:07:04Z</time>
      </trkpt>
      <trkpt lat="41.98659" lon="-8.21763">
        <ele>803.422</ele>
        <time>2012-08-03T12:07:16Z</time>
      </trkpt>
      <trkpt lat="41.98655" lon="-8.21753">
        <ele>802.452</ele>
        <time>2012-08-03T12:07:27Z</time>
      </trkpt>
      <trkpt lat="41.98651" lon="-8.21741">
        <ele>800.085</ele>
        <time>2012-08-03T12:07:39Z</time>
      </trkpt>
      <trkpt lat="41.98654" lon="-8.21733">
        <ele>798.413</ele>
        <time>2012-08-03T12:07:52Z</time>
      </trkpt>
      <trkpt lat="41.98657" lon="-8.21724">
        <ele>796.16</ele>
        <time>2012-08-03T12:08:07Z</time>
      </trkpt>
      <trkpt lat="41.98664" lon="-8.21716">
        <ele>795.129</ele>
        <time>2012-08-03T12:08:18Z</time>
      </trkpt>
      <trkpt lat="41.98667" lon="-8.21712">
        <ele>794.822</ele>
        <time>2012-08-03T12:08:22Z</time>
      </trkpt>
      <trkpt lat="41.98669" lon="-8.2171">
        <ele>794.813</ele>
        <time>2012-08-03T12:08:24Z</time>
      </trkpt>
      <trkpt lat="41.98668" lon="-8.21708">
        <ele>794.561</ele>
        <time>2012-08-03T12:08:26Z</time>
      </trkpt>
      <trkpt lat="41.9868" lon="-8.21709">
        <ele>792.162</ele>
        <time>2012-08-03T12:08:39Z</time>
      </trkpt>
      <trkpt lat="41.98676" lon="-8.21698">
        <ele>787.447</ele>
        <time>2012-08-03T12:08:53Z</time>
      </trkpt>
      <trkpt lat="41.98664" lon="-8.217">
        <ele>785.468</ele>
        <time>2012-08-03T12:09:16Z</time>
      </trkpt>
      <trkpt lat="41.98653" lon="-8.21695">
        <ele>784.523</ele>
        <time>2012-08-03T12:09:30Z</time>
      </trkpt>
      <trkpt lat="41.98652" lon="-8.21689">
        <ele>785.702</ele>
        <time>2012-08-03T12:09:39Z</time>
      </trkpt>
      <trkpt lat="41.98645" lon="-8.21686">
        <ele>787.644</ele>
        <time>2012-08-03T12:09:53Z</time>
      </trkpt>
      <trkpt lat="41.98639" lon="-8.21686">
        <ele>788.171</ele>
        <time>2012-08-03T12:10:11Z</time>
      </trkpt>
      <trkpt lat="41.9863" lon="-8.21693">
        <ele>787.621</ele>
        <time>2012-08-03T12:10:32Z</time>
      </trkpt>
      <trkpt lat="41.98628" lon="-8.21693">
        <ele>787.626</ele>
        <time>2012-08-03T12:10:33Z</time>
      </trkpt>
      <trkpt lat="41.98619" lon="-8.21691">
        <ele>786.1</ele>
        <time>2012-08-03T12:10:49Z</time>
      </trkpt>
      <trkpt lat="41.98614" lon="-8.21697">
        <ele>785.122</ele>
        <time>2012-08-03T12:11:01Z</time>
      </trkpt>
      <trkpt lat="41.98605" lon="-8.217">
        <ele>784.274</ele>
        <time>2012-08-03T12:11:13Z</time>
      </trkpt>
      <trkpt lat="41.98594" lon="-8.21701">
        <ele>780.876</ele>
        <time>2012-08-03T12:11:27Z</time>
      </trkpt>
      <trkpt lat="41.98588" lon="-8.21705">
        <ele>779.52</ele>
        <time>2012-08-03T12:11:40Z</time>
      </trkpt>
      <trkpt lat="41.98585" lon="-8.21705">
        <ele>778.943</ele>
        <time>2012-08-03T12:11:43Z</time>
      </trkpt>
      <trkpt lat="41.98578" lon="-8.2173">
        <ele>773.752</ele>
        <time>2012-08-03T12:12:02Z</time>
      </trkpt>
      <trkpt lat="41.98575" lon="-8.21725">
        <ele>771.336</ele>
        <time>2012-08-03T12:12:11Z</time>
      </trkpt>
      <trkpt lat="41.98566" lon="-8.21722">
        <ele>764.025</ele>
        <time>2012-08-03T12:12:28Z</time>
      </trkpt>
      <trkpt lat="41.9856" lon="-8.21718">
        <ele>762.282</ele>
        <time>2012-08-03T12:12:42Z</time>
      </trkpt>
      <trkpt lat="41.98555" lon="-8.21718">
        <ele>760.043</ele>
        <time>2012-08-03T12:12:58Z</time>
      </trkpt>
      <trkpt lat="41.98552" lon="-8.21714">
        <ele>758.897</ele>
        <time>2012-08-03T12:13:12Z</time>
      </trkpt>
      <trkpt lat="41.98551" lon="-8.21713">
        <ele>759.129</ele>
        <time>2012-08-03T12:13:18Z</time>
      </trkpt>
      <trkpt lat="41.98546" lon="-8.2171">
        <ele>758.705</ele>
        <time>2012-08-03T12:13:24Z</time>
      </trkpt>
      <trkpt lat="41.98544" lon="-8.21704">
        <ele>758.426</ele>
        <time>2012-08-03T12:13:28Z</time>
      </trkpt>
      <trkpt lat="41.98541" lon="-8.21697">
        <ele>758.933</ele>
        <time>2012-08-03T12:13:33Z</time>
      </trkpt>
      <trkpt lat="41.98541" lon="-8.2168">
        <ele>756.498</ele>
        <time>2012-08-03T12:13:45Z</time>
      </trkpt>
      <trkpt lat="41.98543" lon="-8.21675">
        <ele>755.483</ele>
        <time>2012-08-03T12:13:54Z</time>
      </trkpt>
      <trkpt lat="41.98548" lon="-8.21669">
        <ele>754.248</ele>
        <time>2012-08-03T12:13:59Z</time>
      </trkpt>
      <trkpt lat="41.98558" lon="-8.21663">
        <ele>751.749</ele>
        <time>2012-08-03T12:14:11Z</time>
      </trkpt>
      <trkpt lat="41.98561" lon="-8.21661">
        <ele>749.442</ele>
        <time>2012-08-03T12:14:16Z</time>
      </trkpt>
      <trkpt lat="41.98566" lon="-8.21657">
        <ele>746.83</ele>
        <time>2012-08-03T12:14:27Z</time>
      </trkpt>
      <trkpt lat="41.98562" lon="-8.21657">
        <ele>745.247</ele>
        <time>2012-08-03T12:14:45Z</time>
      </trkpt>
      <trkpt lat="41.98547" lon="-8.21654">
        <ele>743.974</ele>
        <time>2012-08-03T12:14:59Z</time>
      </trkpt>
      <trkpt lat="41.98532" lon="-8.21656">
        <ele>740.22</ele>
        <time>2012-08-03T12:15:13Z</time>
      </trkpt>
      <trkpt lat="41.98524" lon="-8.21656">
        <ele>739.685</ele>
        <time>2012-08-03T12:15:28Z</time>
      </trkpt>
      <trkpt lat="41.98521" lon="-8.2166">
        <ele>740.615</ele>
        <time>2012-08-03T12:15:32Z</time>
      </trkpt>
      <trkpt lat="41.98507" lon="-8.21669">
        <ele>742.381</ele>
        <time>2012-08-03T12:15:44Z</time>
      </trkpt>
      <trkpt lat="41.98504" lon="-8.21672">
        <ele>742.782</ele>
        <time>2012-08-03T12:15:48Z</time>
      </trkpt>
      <trkpt lat="41.98487" lon="-8.21688">
        <ele>743.968</ele>
        <time>2012-08-03T12:16:05Z</time>
      </trkpt>
      <trkpt lat="41.98476" lon="-8.21702">
        <ele>739.534</ele>
        <time>2012-08-03T12:16:16Z</time>
      </trkpt>
      <trkpt lat="41.98469" lon="-8.2171">
        <ele>739.058</ele>
        <time>2012-08-03T12:16:26Z</time>
      </trkpt>
      <trkpt lat="41.9846" lon="-8.21723">
        <ele>736.225</ele>
        <time>2012-08-03T12:16:38Z</time>
      </trkpt>
      <trkpt lat="41.98445" lon="-8.21735">
        <ele>731.864</ele>
        <time>2012-08-03T12:16:52Z</time>
      </trkpt>
      <trkpt lat="41.98435" lon="-8.21749">
        <ele>729.171</ele>
        <time>2012-08-03T12:17:05Z</time>
      </trkpt>
      <trkpt lat="41.98426" lon="-8.21755">
        <ele>729.165</ele>
        <time>2012-08-03T12:17:12Z</time>
      </trkpt>
      <trkpt lat="41.98423" lon="-8.21765">
        <ele>729.639</ele>
        <time>2012-08-03T12:17:19Z</time>
      </trkpt>
      <trkpt lat="41.9842" lon="-8.21774">
        <ele>729.907</ele>
        <time>2012-08-03T12:17:25Z</time>
      </trkpt>
      <trkpt lat="41.98412" lon="-8.21779">
        <ele>728.225</ele>
        <time>2012-08-03T12:17:32Z</time>
      </trkpt>
      <trkpt lat="41.98406" lon="-8.21777">
        <ele>727.29</ele>
        <time>2012-08-03T12:17:39Z</time>
      </trkpt>
      <trkpt lat="41.98394" lon="-8.21774">
        <ele>728.027</ele>
        <time>2012-08-03T12:17:54Z</time>
      </trkpt>
      <trkpt lat="41.9838" lon="-8.21772">
        <ele>729.293</ele>
        <time>2012-08-03T12:18:07Z</time>
      </trkpt>
      <trkpt lat="41.98377" lon="-8.2177">
        <ele>729.898</ele>
        <time>2012-08-03T12:18:10Z</time>
      </trkpt>
      <trkpt lat="41.98373" lon="-8.21766">
        <ele>731.673</ele>
        <time>2012-08-03T12:18:14Z</time>
      </trkpt>
      <trkpt lat="41.98368" lon="-8.21763">
        <ele>733.227</ele>
        <time>2012-08-03T12:18:20Z</time>
      </trkpt>
      <trkpt lat="41.98362" lon="-8.21758">
        <ele>734.365</ele>
        <time>2012-08-03T12:18:26Z</time>
      </trkpt>
      <trkpt lat="41.98356" lon="-8.21753">
        <ele>735.312</ele>
        <time>2012-08-03T12:18:32Z</time>
      </trkpt>
      <trkpt lat="41.98352" lon="-8.21752">
        <ele>735.626</ele>
        <time>2012-08-03T12:18:36Z</time>
      </trkpt>
      <trkpt lat="41.9835" lon="-8.21749">
        <ele>735.366</ele>
        <time>2012-08-03T12:18:39Z</time>
      </trkpt>
      <trkpt lat="41.9833" lon="-8.21747">
        <ele>737.558</ele>
        <time>2012-08-03T12:18:57Z</time>
      </trkpt>
      <trkpt lat="41.98329" lon="-8.21749">
        <ele>738.112</ele>
        <time>2012-08-03T12:18:59Z</time>
      </trkpt>
      <trkpt lat="41.98324" lon="-8.21761">
        <ele>737.966</ele>
        <time>2012-08-03T12:19:07Z</time>
      </trkpt>
      <trkpt lat="41.98324" lon="-8.21764">
        <ele>737.259</ele>
        <time>2012-08-03T12:19:09Z</time>
      </trkpt>
      <trkpt lat="41.98324" lon="-8.2177">
        <ele>736.581</ele>
        <time>2012-08-03T12:19:12Z</time>
      </trkpt>
      <trkpt lat="41.98321" lon="-8.21774">
        <ele>735.522</ele>
        <time>2012-08-03T12:19:16Z</time>
      </trkpt>
      <trkpt lat="41.98314" lon="-8.2179">
        <ele>734.01</ele>
        <time>2012-08-03T12:19:28Z</time>
      </trkpt>
      <trkpt lat="41.98311" lon="-8.21791">
        <ele>733.003</ele>
        <time>2012-08-03T12:19:31Z</time>
      </trkpt>
      <trkpt lat="41.98312" lon="-8.21794">
        <ele>732.524</ele>
        <time>2012-08-03T12:19:33Z</time>
      </trkpt>
      <trkpt lat="41.9831" lon="-8.21799">
        <ele>731.914</ele>
        <time>2012-08-03T12:19:38Z</time>
      </trkpt>
      <trkpt lat="41.98306" lon="-8.21806">
        <ele>732.13</ele>
        <time>2012-08-03T12:19:45Z</time>
      </trkpt>
      <trkpt lat="41.98306" lon="-8.2181">
        <ele>731.435</ele>
        <time>2012-08-03T12:19:50Z</time>
      </trkpt>
      <trkpt lat="41.98299" lon="-8.21825">
        <ele>730.642</ele>
        <time>2012-08-03T12:20:01Z</time>
      </trkpt>
      <trkpt lat="41.98298" lon="-8.21843">
        <ele>729.015</ele>
        <time>2012-08-03T12:20:16Z</time>
      </trkpt>
      <trkpt lat="41.98297" lon="-8.21847">
        <ele>728.458</ele>
        <time>2012-08-03T12:20:18Z</time>
      </trkpt>
      <trkpt lat="41.98291" lon="-8.21859">
        <ele>728.496</ele>
        <time>2012-08-03T12:20:25Z</time>
      </trkpt>
      <trkpt lat="41.98289" lon="-8.21874">
        <ele>724.109</ele>
        <time>2012-08-03T12:20:36Z</time>
      </trkpt>
      <trkpt lat="41.98279" lon="-8.21894">
        <ele>719.657</ele>
        <time>2012-08-03T12:20:54Z</time>
      </trkpt>
      <trkpt lat="41.98268" lon="-8.21903">
        <ele>717.634</ele>
        <time>2012-08-03T12:21:06Z</time>
      </trkpt>
      <trkpt lat="41.9825" lon="-8.2191">
        <ele>713.906</ele>
        <time>2012-08-03T12:21:20Z</time>
      </trkpt>
      <trkpt lat="41.98243" lon="-8.2191">
        <ele>713.62</ele>
        <time>2012-08-03T12:21:27Z</time>
      </trkpt>
      <trkpt lat="41.98235" lon="-8.21912">
        <ele>711.989</ele>
        <time>2012-08-03T12:21:37Z</time>
      </trkpt>
      <trkpt lat="41.9822" lon="-8.21913">
        <ele>711.359</ele>
        <time>2012-08-03T12:21:46Z</time>
      </trkpt>
      <trkpt lat="41.98217" lon="-8.21914">
        <ele>711.293</ele>
        <time>2012-08-03T12:21:48Z</time>
      </trkpt>
      <trkpt lat="41.98201" lon="-8.21923">
        <ele>708.438</ele>
        <time>2012-08-03T12:22:03Z</time>
      </trkpt>
      <trkpt lat="41.98186" lon="-8.21928">
        <ele>708.219</ele>
        <time>2012-08-03T12:22:19Z</time>
      </trkpt>
      <trkpt lat="41.98173" lon="-8.21926">
        <ele>707.611</ele>
        <time>2012-08-03T12:22:33Z</time>
      </trkpt>
      <trkpt lat="41.98162" lon="-8.21924">
        <ele>708.426</ele>
        <time>2012-08-03T12:22:44Z</time>
      </trkpt>
      <trkpt lat="41.98147" lon="-8.21916">
        <ele>708.861</ele>
        <time>2012-08-03T12:23:00Z</time>
      </trkpt>
      <trkpt lat="41.98123" lon="-8.21917">
        <ele>708.528</ele>
        <time>2012-08-03T12:23:34Z</time>
      </trkpt>
      <trkpt lat="41.98105" lon="-8.21918">
        <ele>707.264</ele>
        <time>2012-08-03T12:23:46Z</time>
      </trkpt>
      <trkpt lat="41.98103" lon="-8.21921">
        <ele>706.595</ele>
        <time>2012-08-03T12:23:48Z</time>
      </trkpt>
      <trkpt lat="41.98079" lon="-8.21916">
        <ele>706.739</ele>
        <time>2012-08-03T12:24:01Z</time>
      </trkpt>
      <trkpt lat="41.98072" lon="-8.21918">
        <ele>707.52</ele>
        <time>2012-08-03T12:24:12Z</time>
      </trkpt>
      <trkpt lat="41.98057" lon="-8.21918">
        <ele>710.058</ele>
        <time>2012-08-03T12:24:23Z</time>
      </trkpt>
      <trkpt lat="41.98038" lon="-8.21923">
        <ele>708.141</ele>
        <time>2012-08-03T12:24:42Z</time>
      </trkpt>
      <trkpt lat="41.98026" lon="-8.21925">
        <ele>707.134</ele>
        <time>2012-08-03T12:24:52Z</time>
      </trkpt>
      <trkpt lat="41.98023" lon="-8.21931">
        <ele>707.547</ele>
        <time>2012-08-03T12:24:57Z</time>
      </trkpt>
      <trkpt lat="41.98007" lon="-8.21934">
        <ele>706.443</ele>
        <time>2012-08-03T12:25:08Z</time>
      </trkpt>
      <trkpt lat="41.98" lon="-8.21938">
        <ele>705.739</ele>
        <time>2012-08-03T12:25:17Z</time>
      </trkpt>
      <trkpt lat="41.97993" lon="-8.21943">
        <ele>705.459</ele>
        <time>2012-08-03T12:25:23Z</time>
      </trkpt>
      <trkpt lat="41.97986" lon="-8.21949">
        <ele>706</ele>
        <time>2012-08-03T12:25:32Z</time>
      </trkpt>
      <trkpt lat="41.97973" lon="-8.21966">
        <ele>703.635</ele>
        <time>2012-08-03T12:25:50Z</time>
      </trkpt>
      <trkpt lat="41.97961" lon="-8.21964">
        <ele>700.967</ele>
        <time>2012-08-03T12:25:55Z</time>
      </trkpt>
      <trkpt lat="41.97959" lon="-8.21965">
        <ele>700.505</ele>
        <time>2012-08-03T12:25:57Z</time>
      </trkpt>
      <trkpt lat="41.97938" lon="-8.2197">
        <ele>696.587</ele>
        <time>2012-08-03T12:26:13Z</time>
      </trkpt>
      <trkpt lat="41.97932" lon="-8.21969">
        <ele>695.416</ele>
        <time>2012-08-03T12:26:19Z</time>
      </trkpt>
      <trkpt lat="41.97925" lon="-8.21971">
        <ele>693.862</ele>
        <time>2012-08-03T12:26:26Z</time>
      </trkpt>
      <trkpt lat="41.97918" lon="-8.21979">
        <ele>691.95</ele>
        <time>2012-08-03T12:26:33Z</time>
      </trkpt>
      <trkpt lat="41.97912" lon="-8.21987">
        <ele>690.514</ele>
        <time>2012-08-03T12:26:41Z</time>
      </trkpt>
      <trkpt lat="41.979" lon="-8.21992">
        <ele>689.558</ele>
        <time>2012-08-03T12:26:51Z</time>
      </trkpt>
      <trkpt lat="41.9789" lon="-8.2201">
        <ele>685.674</ele>
        <time>2012-08-03T12:27:09Z</time>
      </trkpt>
      <trkpt lat="41.97881" lon="-8.22015">
        <ele>685.655</ele>
        <time>2012-08-03T12:27:17Z</time>
      </trkpt>
      <trkpt lat="41.97876" lon="-8.22022">
        <ele>688.327</ele>
        <time>2012-08-03T12:27:24Z</time>
      </trkpt>
      <trkpt lat="41.97873" lon="-8.22025">
        <ele>688.116</ele>
        <time>2012-08-03T12:27:27Z</time>
      </trkpt>
      <trkpt lat="41.97869" lon="-8.22028">
        <ele>687.785</ele>
        <time>2012-08-03T12:27:32Z</time>
      </trkpt>
      <trkpt lat="41.97859" lon="-8.22027">
        <ele>689.116</ele>
        <time>2012-08-03T12:27:44Z</time>
      </trkpt>
      <trkpt lat="41.97848" lon="-8.2203">
        <ele>690.798</ele>
        <time>2012-08-03T12:27:59Z</time>
      </trkpt>
      <trkpt lat="41.97841" lon="-8.22029">
        <ele>689.125</ele>
        <time>2012-08-03T12:28:17Z</time>
      </trkpt>
      <trkpt lat="41.97833" lon="-8.2203">
        <ele>689.94</ele>
        <time>2012-08-03T12:28:37Z</time>
      </trkpt>
      <trkpt lat="41.97834" lon="-8.22034">
        <ele>689.376</ele>
        <time>2012-08-03T12:28:50Z</time>
      </trkpt>
      <trkpt lat="41.97825" lon="-8.22042">
        <ele>689.062</ele>
        <time>2012-08-03T12:29:01Z</time>
      </trkpt>
      <trkpt lat="41.9782" lon="-8.22042">
        <ele>687.797</ele>
        <time>2012-08-03T12:29:05Z</time>
      </trkpt>
      <trkpt lat="41.97813" lon="-8.22045">
        <ele>687.877</ele>
        <time>2012-08-03T12:29:10Z</time>
      </trkpt>
      <trkpt lat="41.97806" lon="-8.22052">
        <ele>688.305</ele>
        <time>2012-08-03T12:29:17Z</time>
      </trkpt>
      <trkpt lat="41.97802" lon="-8.2206">
        <ele>688.291</ele>
        <time>2012-08-03T12:29:24Z</time>
      </trkpt>
      <trkpt lat="41.97803" lon="-8.22064">
        <ele>687.895</ele>
        <time>2012-08-03T12:29:28Z</time>
      </trkpt>
      <trkpt lat="41.97794" lon="-8.22072">
        <ele>687.385</ele>
        <time>2012-08-03T12:29:37Z</time>
      </trkpt>
      <trkpt lat="41.97792" lon="-8.22077">
        <ele>686.627</ele>
        <time>2012-08-03T12:29:41Z</time>
      </trkpt>
      <trkpt lat="41.97772" lon="-8.2209">
        <ele>686.163</ele>
        <time>2012-08-03T12:30:00Z</time>
      </trkpt>
      <trkpt lat="41.9777" lon="-8.22095">
        <ele>684.774</ele>
        <time>2012-08-03T12:30:07Z</time>
      </trkpt>
      <trkpt lat="41.97756" lon="-8.22098">
        <ele>681.843</ele>
        <time>2012-08-03T12:30:18Z</time>
      </trkpt>
      <trkpt lat="41.97741" lon="-8.22103">
        <ele>680.118</ele>
        <time>2012-08-03T12:30:30Z</time>
      </trkpt>
      <trkpt lat="41.97736" lon="-8.22106">
        <ele>680.72</ele>
        <time>2012-08-03T12:30:36Z</time>
      </trkpt>
      <trkpt lat="41.97727" lon="-8.22103">
        <ele>679.484</ele>
        <time>2012-08-03T12:30:43Z</time>
      </trkpt>
      <trkpt lat="41.97716" lon="-8.22099">
        <ele>676.219</ele>
        <time>2012-08-03T12:30:49Z</time>
      </trkpt>
      <trkpt lat="41.9771" lon="-8.22111">
        <ele>677.738</ele>
        <time>2012-08-03T12:31:01Z</time>
      </trkpt>
      <trkpt lat="41.97697" lon="-8.22117">
        <ele>678.477</ele>
        <time>2012-08-03T12:31:19Z</time>
      </trkpt>
      <trkpt lat="41.97685" lon="-8.2212">
        <ele>678.508</ele>
        <time>2012-08-03T12:31:28Z</time>
      </trkpt>
      <trkpt lat="41.97663" lon="-8.22125">
        <ele>679.819</ele>
        <time>2012-08-03T12:31:46Z</time>
      </trkpt>
      <trkpt lat="41.97651" lon="-8.22128">
        <ele>679.984</ele>
        <time>2012-08-03T12:32:04Z</time>
      </trkpt>
      <trkpt lat="41.97634" lon="-8.22128">
        <ele>680.034</ele>
        <time>2012-08-03T12:32:17Z</time>
      </trkpt>
      <trkpt lat="41.97631" lon="-8.22137">
        <ele>680.06</ele>
        <time>2012-08-03T12:32:25Z</time>
      </trkpt>
      <trkpt lat="41.97626" lon="-8.22143">
        <ele>680.536</ele>
        <time>2012-08-03T12:32:31Z</time>
      </trkpt>
      <trkpt lat="41.97623" lon="-8.22141">
        <ele>680.465</ele>
        <time>2012-08-03T12:32:35Z</time>
      </trkpt>
      <trkpt lat="41.9761" lon="-8.22151">
        <ele>676.975</ele>
        <time>2012-08-03T12:32:49Z</time>
      </trkpt>
      <trkpt lat="41.97597" lon="-8.2216">
        <ele>677.549</ele>
        <time>2012-08-03T12:33:05Z</time>
      </trkpt>
      <trkpt lat="41.97584" lon="-8.22167">
        <ele>675.9</ele>
        <time>2012-08-03T12:33:20Z</time>
      </trkpt>
      <trkpt lat="41.97582" lon="-8.22168">
        <ele>675.432</ele>
        <time>2012-08-03T12:33:22Z</time>
      </trkpt>
      <trkpt lat="41.97568" lon="-8.22172">
        <ele>671.755</ele>
        <time>2012-08-03T12:33:37Z</time>
      </trkpt>
      <trkpt lat="41.97567" lon="-8.22172">
        <ele>671.983</ele>
        <time>2012-08-03T12:33:41Z</time>
      </trkpt>
      <trkpt lat="41.97564" lon="-8.22174">
        <ele>671.326</ele>
        <time>2012-08-03T12:33:44Z</time>
      </trkpt>
      <trkpt lat="41.97549" lon="-8.22176">
        <ele>667.547</ele>
        <time>2012-08-03T12:33:58Z</time>
      </trkpt>
      <trkpt lat="41.97532" lon="-8.22188">
        <ele>666.397</ele>
        <time>2012-08-03T12:34:18Z</time>
      </trkpt>
      <trkpt lat="41.97519" lon="-8.22189">
        <ele>665.981</ele>
        <time>2012-08-03T12:34:30Z</time>
      </trkpt>
      <trkpt lat="41.97517" lon="-8.2219">
        <ele>666.168</ele>
        <time>2012-08-03T12:34:33Z</time>
      </trkpt>
      <trkpt lat="41.97493" lon="-8.22199">
        <ele>663.187</ele>
        <time>2012-08-03T12:34:57Z</time>
      </trkpt>
      <trkpt lat="41.97474" lon="-8.22211">
        <ele>661.509</ele>
        <time>2012-08-03T12:35:19Z</time>
      </trkpt>
      <trkpt lat="41.97457" lon="-8.2223">
        <ele>659.112</ele>
        <time>2012-08-03T12:35:38Z</time>
      </trkpt>
      <trkpt lat="41.97454" lon="-8.22231">
        <ele>658.89</ele>
        <time>2012-08-03T12:35:41Z</time>
      </trkpt>
      <trkpt lat="41.97452" lon="-8.22234">
        <ele>658.438</ele>
        <time>2012-08-03T12:35:45Z</time>
      </trkpt>
      <trkpt lat="41.97451" lon="-8.22237">
        <ele>658.068</ele>
        <time>2012-08-03T12:35:48Z</time>
      </trkpt>
      <trkpt lat="41.97437" lon="-8.22244">
        <ele>658.103</ele>
        <time>2012-08-03T12:36:00Z</time>
      </trkpt>
      <trkpt lat="41.97433" lon="-8.22248">
        <ele>658.211</ele>
        <time>2012-08-03T12:36:05Z</time>
      </trkpt>
      <trkpt lat="41.97425" lon="-8.22255">
        <ele>659.919</ele>
        <time>2012-08-03T12:36:14Z</time>
      </trkpt>
      <trkpt lat="41.97419" lon="-8.22263">
        <ele>658.457</ele>
        <time>2012-08-03T12:36:25Z</time>
      </trkpt>
      <trkpt lat="41.97417" lon="-8.22264">
        <ele>658.13</ele>
        <time>2012-08-03T12:36:27Z</time>
      </trkpt>
      <trkpt lat="41.97413" lon="-8.22263">
        <ele>658.573</ele>
        <time>2012-08-03T12:36:30Z</time>
      </trkpt>
      <trkpt lat="41.97411" lon="-8.22266">
        <ele>661.481</ele>
        <time>2012-08-03T12:36:40Z</time>
      </trkpt>
      <trkpt lat="41.97409" lon="-8.22274">
        <ele>661.266</ele>
        <time>2012-08-03T12:36:56Z</time>
      </trkpt>
      <trkpt lat="41.97404" lon="-8.22281">
        <ele>661.348</ele>
        <time>2012-08-03T12:37:08Z</time>
      </trkpt>
      <trkpt lat="41.97404" lon="-8.22279">
        <ele>661.749</ele>
        <time>2012-08-03T12:37:10Z</time>
      </trkpt>
      <trkpt lat="41.97401" lon="-8.22278">
        <ele>662.655</ele>
        <time>2012-08-03T12:37:29Z</time>
      </trkpt>
      <trkpt lat="41.97401" lon="-8.22278">
        <ele>662.661</ele>
        <time>2012-08-03T12:37:30Z</time>
      </trkpt>
    </trkseg>
  </trk>
</gpx>